<?xml version="1.0" encoding="UTF-8" standalone="no" ?>
<gpx xmlns="http://www.topografix.com/GPX/1/1" xmlns:xsi="http://www.w3.org/2001/XMLSchema-instance" xsi:schemaLocation="http://www.topografix.com/GPX/1/1 http://www.topografix.com/GPX/1/1/gpx.xsd" version="1.1" creator="VisuGPX - https://www.visugpx.com">
  <metadata>
    <name>Montagne Pellat</name>
  </metadata>
  <trk>
    <name><![CDATA[Tracé actuel: 18 AVR 2023 07:54]]></name>
    <trkseg>
      <trkpt lat="44.54467" lon="6.63282">
        <ele>1673.31</ele>
        <time>2023-04-18T05:58:31Z</time>
      </trkpt>
      <trkpt lat="44.54456" lon="6.633">
        <ele>1673.79</ele>
        <time>2023-04-18T05:58:51Z</time>
      </trkpt>
      <trkpt lat="44.54448" lon="6.63316">
        <ele>1674.27</ele>
        <time>2023-04-18T05:59:06Z</time>
      </trkpt>
      <trkpt lat="44.54443" lon="6.63328">
        <ele>1674.27</ele>
        <time>2023-04-18T05:59:20Z</time>
      </trkpt>
      <trkpt lat="44.54435" lon="6.63342">
        <ele>1674.27</ele>
        <time>2023-04-18T05:59:35Z</time>
      </trkpt>
      <trkpt lat="44.54428" lon="6.63354">
        <ele>1675.23</ele>
        <time>2023-04-18T05:59:49Z</time>
      </trkpt>
      <trkpt lat="44.54417" lon="6.63373">
        <ele>1675.72</ele>
        <time>2023-04-18T06:00:13Z</time>
      </trkpt>
      <trkpt lat="44.54408" lon="6.63388">
        <ele>1675.72</ele>
        <time>2023-04-18T06:00:27Z</time>
      </trkpt>
      <trkpt lat="44.54401" lon="6.63402">
        <ele>1676.2</ele>
        <time>2023-04-18T06:00:41Z</time>
      </trkpt>
      <trkpt lat="44.54394" lon="6.63419">
        <ele>1676.68</ele>
        <time>2023-04-18T06:00:57Z</time>
      </trkpt>
      <trkpt lat="44.54388" lon="6.63435">
        <ele>1677.16</ele>
        <time>2023-04-18T06:01:13Z</time>
      </trkpt>
      <trkpt lat="44.54381" lon="6.63449">
        <ele>1678.6</ele>
        <time>2023-04-18T06:01:28Z</time>
      </trkpt>
      <trkpt lat="44.54376" lon="6.63461">
        <ele>1678.6</ele>
        <time>2023-04-18T06:01:42Z</time>
      </trkpt>
      <trkpt lat="44.54369" lon="6.63472">
        <ele>1678.6</ele>
        <time>2023-04-18T06:01:55Z</time>
      </trkpt>
      <trkpt lat="44.54361" lon="6.63483">
        <ele>1678.6</ele>
        <time>2023-04-18T06:02:10Z</time>
      </trkpt>
      <trkpt lat="44.54354" lon="6.63496">
        <ele>1679.08</ele>
        <time>2023-04-18T06:02:25Z</time>
      </trkpt>
      <trkpt lat="44.54349" lon="6.63508">
        <ele>1680.04</ele>
        <time>2023-04-18T06:02:38Z</time>
      </trkpt>
      <trkpt lat="44.54343" lon="6.6352">
        <ele>1680.52</ele>
        <time>2023-04-18T06:02:50Z</time>
      </trkpt>
      <trkpt lat="44.54336" lon="6.63536">
        <ele>1681</ele>
        <time>2023-04-18T06:03:05Z</time>
      </trkpt>
      <trkpt lat="44.54328" lon="6.63552">
        <ele>1681.48</ele>
        <time>2023-04-18T06:03:20Z</time>
      </trkpt>
      <trkpt lat="44.54323" lon="6.63566">
        <ele>1681</ele>
        <time>2023-04-18T06:03:34Z</time>
      </trkpt>
      <trkpt lat="44.54317" lon="6.6358">
        <ele>1681.96</ele>
        <time>2023-04-18T06:03:48Z</time>
      </trkpt>
      <trkpt lat="44.5431" lon="6.63591">
        <ele>1682.93</ele>
        <time>2023-04-18T06:04:02Z</time>
      </trkpt>
      <trkpt lat="44.54302" lon="6.63604">
        <ele>1683.89</ele>
        <time>2023-04-18T06:04:19Z</time>
      </trkpt>
      <trkpt lat="44.54295" lon="6.63615">
        <ele>1684.37</ele>
        <time>2023-04-18T06:04:32Z</time>
      </trkpt>
      <trkpt lat="44.54285" lon="6.63641">
        <ele>1685.33</ele>
        <time>2023-04-18T06:04:57Z</time>
      </trkpt>
      <trkpt lat="44.54279" lon="6.63655">
        <ele>1686.29</ele>
        <time>2023-04-18T06:05:11Z</time>
      </trkpt>
      <trkpt lat="44.54277" lon="6.63672">
        <ele>1686.29</ele>
        <time>2023-04-18T06:05:24Z</time>
      </trkpt>
      <trkpt lat="44.54283" lon="6.63694">
        <ele>1686.77</ele>
        <time>2023-04-18T06:05:40Z</time>
      </trkpt>
      <trkpt lat="44.54279" lon="6.63713">
        <ele>1687.73</ele>
        <time>2023-04-18T06:05:55Z</time>
      </trkpt>
      <trkpt lat="44.54282" lon="6.63728">
        <ele>1688.69</ele>
        <time>2023-04-18T06:06:27Z</time>
      </trkpt>
      <trkpt lat="44.54284" lon="6.63728">
        <ele>1686.77</ele>
        <time>2023-04-18T06:07:13Z</time>
      </trkpt>
      <trkpt lat="44.54278" lon="6.63751">
        <ele>1686.77</ele>
        <time>2023-04-18T06:08:19Z</time>
      </trkpt>
      <trkpt lat="44.54273" lon="6.63771">
        <ele>1687.73</ele>
        <time>2023-04-18T06:08:35Z</time>
      </trkpt>
      <trkpt lat="44.54268" lon="6.63797">
        <ele>1689.17</ele>
        <time>2023-04-18T06:08:53Z</time>
      </trkpt>
      <trkpt lat="44.54264" lon="6.63811">
        <ele>1689.17</ele>
        <time>2023-04-18T06:09:03Z</time>
      </trkpt>
      <trkpt lat="44.5426" lon="6.63822">
        <ele>1689.17</ele>
        <time>2023-04-18T06:09:13Z</time>
      </trkpt>
      <trkpt lat="44.54252" lon="6.63841">
        <ele>1690.14</ele>
        <time>2023-04-18T06:09:28Z</time>
      </trkpt>
      <trkpt lat="44.54247" lon="6.63864">
        <ele>1690.62</ele>
        <time>2023-04-18T06:09:45Z</time>
      </trkpt>
      <trkpt lat="44.54243" lon="6.63883">
        <ele>1690.62</ele>
        <time>2023-04-18T06:10:00Z</time>
      </trkpt>
      <trkpt lat="44.5424" lon="6.63902">
        <ele>1691.58</ele>
        <time>2023-04-18T06:10:14Z</time>
      </trkpt>
      <trkpt lat="44.54228" lon="6.63923">
        <ele>1692.54</ele>
        <time>2023-04-18T06:10:32Z</time>
      </trkpt>
      <trkpt lat="44.54211" lon="6.63942">
        <ele>1693.5</ele>
        <time>2023-04-18T06:10:51Z</time>
      </trkpt>
      <trkpt lat="44.54199" lon="6.63957">
        <ele>1694.46</ele>
        <time>2023-04-18T06:11:08Z</time>
      </trkpt>
      <trkpt lat="44.54187" lon="6.63969">
        <ele>1695.9</ele>
        <time>2023-04-18T06:11:22Z</time>
      </trkpt>
      <trkpt lat="44.54172" lon="6.63975">
        <ele>1695.9</ele>
        <time>2023-04-18T06:11:40Z</time>
      </trkpt>
      <trkpt lat="44.54168" lon="6.63981">
        <ele>1694.46</ele>
        <time>2023-04-18T06:12:32Z</time>
      </trkpt>
      <trkpt lat="44.54173" lon="6.63974">
        <ele>1695.9</ele>
        <time>2023-04-18T06:13:22Z</time>
      </trkpt>
      <trkpt lat="44.54164" lon="6.63986">
        <ele>1695.9</ele>
        <time>2023-04-18T06:13:40Z</time>
      </trkpt>
      <trkpt lat="44.54157" lon="6.64001">
        <ele>1697.34</ele>
        <time>2023-04-18T06:13:54Z</time>
      </trkpt>
      <trkpt lat="44.54149" lon="6.64015">
        <ele>1698.79</ele>
        <time>2023-04-18T06:14:09Z</time>
      </trkpt>
      <trkpt lat="44.54144" lon="6.64034">
        <ele>1699.27</ele>
        <time>2023-04-18T06:14:24Z</time>
      </trkpt>
      <trkpt lat="44.54138" lon="6.64054">
        <ele>1700.23</ele>
        <time>2023-04-18T06:14:42Z</time>
      </trkpt>
      <trkpt lat="44.54132" lon="6.64074">
        <ele>1701.67</ele>
        <time>2023-04-18T06:15:23Z</time>
      </trkpt>
      <trkpt lat="44.54125" lon="6.64098">
        <ele>1702.15</ele>
        <time>2023-04-18T06:15:41Z</time>
      </trkpt>
      <trkpt lat="44.54122" lon="6.64117">
        <ele>1702.63</ele>
        <time>2023-04-18T06:15:54Z</time>
      </trkpt>
      <trkpt lat="44.5412" lon="6.64138">
        <ele>1704.07</ele>
        <time>2023-04-18T06:16:10Z</time>
      </trkpt>
      <trkpt lat="44.54118" lon="6.64152">
        <ele>1705.04</ele>
        <time>2023-04-18T06:16:23Z</time>
      </trkpt>
      <trkpt lat="44.54116" lon="6.64171">
        <ele>1706</ele>
        <time>2023-04-18T06:16:37Z</time>
      </trkpt>
      <trkpt lat="44.54114" lon="6.64186">
        <ele>1707.44</ele>
        <time>2023-04-18T06:16:52Z</time>
      </trkpt>
      <trkpt lat="44.54109" lon="6.64209">
        <ele>1708.88</ele>
        <time>2023-04-18T06:17:16Z</time>
      </trkpt>
      <trkpt lat="44.54103" lon="6.64227">
        <ele>1709.36</ele>
        <time>2023-04-18T06:17:33Z</time>
      </trkpt>
      <trkpt lat="44.541" lon="6.64241">
        <ele>1709.84</ele>
        <time>2023-04-18T06:17:43Z</time>
      </trkpt>
      <trkpt lat="44.54093" lon="6.64266">
        <ele>1710.8</ele>
        <time>2023-04-18T06:18:03Z</time>
      </trkpt>
      <trkpt lat="44.54088" lon="6.64282">
        <ele>1711.28</ele>
        <time>2023-04-18T06:18:17Z</time>
      </trkpt>
      <trkpt lat="44.54084" lon="6.64294">
        <ele>1712.73</ele>
        <time>2023-04-18T06:18:30Z</time>
      </trkpt>
      <trkpt lat="44.54079" lon="6.6431">
        <ele>1713.21</ele>
        <time>2023-04-18T06:18:44Z</time>
      </trkpt>
      <trkpt lat="44.54073" lon="6.64326">
        <ele>1714.17</ele>
        <time>2023-04-18T06:18:59Z</time>
      </trkpt>
      <trkpt lat="44.54069" lon="6.64342">
        <ele>1715.13</ele>
        <time>2023-04-18T06:19:13Z</time>
      </trkpt>
      <trkpt lat="44.54059" lon="6.64361">
        <ele>1715.61</ele>
        <time>2023-04-18T06:19:29Z</time>
      </trkpt>
      <trkpt lat="44.54053" lon="6.64371">
        <ele>1716.09</ele>
        <time>2023-04-18T06:19:38Z</time>
      </trkpt>
      <trkpt lat="44.54043" lon="6.64385">
        <ele>1717.05</ele>
        <time>2023-04-18T06:19:52Z</time>
      </trkpt>
      <trkpt lat="44.54027" lon="6.64397">
        <ele>1717.05</ele>
        <time>2023-04-18T06:20:11Z</time>
      </trkpt>
      <trkpt lat="44.54017" lon="6.64401">
        <ele>1718.01</ele>
        <time>2023-04-18T06:20:23Z</time>
      </trkpt>
      <trkpt lat="44.54003" lon="6.64413">
        <ele>1718.97</ele>
        <time>2023-04-18T06:20:39Z</time>
      </trkpt>
      <trkpt lat="44.53993" lon="6.64426">
        <ele>1719.94</ele>
        <time>2023-04-18T06:20:56Z</time>
      </trkpt>
      <trkpt lat="44.53985" lon="6.64433">
        <ele>1720.9</ele>
        <time>2023-04-18T06:21:09Z</time>
      </trkpt>
      <trkpt lat="44.53971" lon="6.6444">
        <ele>1721.38</ele>
        <time>2023-04-18T06:21:22Z</time>
      </trkpt>
      <trkpt lat="44.53959" lon="6.64447">
        <ele>1722.34</ele>
        <time>2023-04-18T06:21:37Z</time>
      </trkpt>
      <trkpt lat="44.53948" lon="6.64457">
        <ele>1723.3</ele>
        <time>2023-04-18T06:21:52Z</time>
      </trkpt>
      <trkpt lat="44.53933" lon="6.64466">
        <ele>1723.78</ele>
        <time>2023-04-18T06:22:07Z</time>
      </trkpt>
      <trkpt lat="44.53922" lon="6.64476">
        <ele>1725.22</ele>
        <time>2023-04-18T06:22:21Z</time>
      </trkpt>
      <trkpt lat="44.53913" lon="6.64486">
        <ele>1726.18</ele>
        <time>2023-04-18T06:22:34Z</time>
      </trkpt>
      <trkpt lat="44.53902" lon="6.64496">
        <ele>1726.67</ele>
        <time>2023-04-18T06:22:47Z</time>
      </trkpt>
      <trkpt lat="44.53894" lon="6.64504">
        <ele>1727.63</ele>
        <time>2023-04-18T06:22:59Z</time>
      </trkpt>
      <trkpt lat="44.53882" lon="6.64515">
        <ele>1728.59</ele>
        <time>2023-04-18T06:23:12Z</time>
      </trkpt>
      <trkpt lat="44.53877" lon="6.64527">
        <ele>1728.59</ele>
        <time>2023-04-18T06:23:39Z</time>
      </trkpt>
      <trkpt lat="44.53873" lon="6.64535">
        <ele>1729.07</ele>
        <time>2023-04-18T06:24:25Z</time>
      </trkpt>
      <trkpt lat="44.53858" lon="6.64534">
        <ele>1729.07</ele>
        <time>2023-04-18T06:24:44Z</time>
      </trkpt>
      <trkpt lat="44.53845" lon="6.64534">
        <ele>1730.51</ele>
        <time>2023-04-18T06:25:06Z</time>
      </trkpt>
      <trkpt lat="44.53832" lon="6.6453">
        <ele>1730.99</ele>
        <time>2023-04-18T06:25:21Z</time>
      </trkpt>
      <trkpt lat="44.53822" lon="6.64527">
        <ele>1731.95</ele>
        <time>2023-04-18T06:25:34Z</time>
      </trkpt>
      <trkpt lat="44.53801" lon="6.64519">
        <ele>1733.39</ele>
        <time>2023-04-18T06:25:55Z</time>
      </trkpt>
      <trkpt lat="44.53787" lon="6.64515">
        <ele>1734.36</ele>
        <time>2023-04-18T06:26:10Z</time>
      </trkpt>
      <trkpt lat="44.53773" lon="6.6451">
        <ele>1735.32</ele>
        <time>2023-04-18T06:26:25Z</time>
      </trkpt>
      <trkpt lat="44.53763" lon="6.64508">
        <ele>1735.8</ele>
        <time>2023-04-18T06:26:36Z</time>
      </trkpt>
      <trkpt lat="44.53749" lon="6.64505">
        <ele>1736.28</ele>
        <time>2023-04-18T06:26:54Z</time>
      </trkpt>
      <trkpt lat="44.53735" lon="6.64502">
        <ele>1736.76</ele>
        <time>2023-04-18T06:27:09Z</time>
      </trkpt>
      <trkpt lat="44.53716" lon="6.64502">
        <ele>1736.28</ele>
        <time>2023-04-18T06:27:38Z</time>
      </trkpt>
      <trkpt lat="44.53702" lon="6.64504">
        <ele>1738.2</ele>
        <time>2023-04-18T06:27:54Z</time>
      </trkpt>
      <trkpt lat="44.53692" lon="6.64503">
        <ele>1738.68</ele>
        <time>2023-04-18T06:28:08Z</time>
      </trkpt>
      <trkpt lat="44.53678" lon="6.64505">
        <ele>1739.16</ele>
        <time>2023-04-18T06:28:26Z</time>
      </trkpt>
      <trkpt lat="44.53666" lon="6.64504">
        <ele>1740.6</ele>
        <time>2023-04-18T06:28:39Z</time>
      </trkpt>
      <trkpt lat="44.53654" lon="6.64505">
        <ele>1741.08</ele>
        <time>2023-04-18T06:28:54Z</time>
      </trkpt>
      <trkpt lat="44.53638" lon="6.64509">
        <ele>1743.49</ele>
        <time>2023-04-18T06:29:13Z</time>
      </trkpt>
      <trkpt lat="44.53626" lon="6.64516">
        <ele>1744.45</ele>
        <time>2023-04-18T06:29:28Z</time>
      </trkpt>
      <trkpt lat="44.53612" lon="6.6452">
        <ele>1745.89</ele>
        <time>2023-04-18T06:29:43Z</time>
      </trkpt>
      <trkpt lat="44.53601" lon="6.64524">
        <ele>1747.33</ele>
        <time>2023-04-18T06:29:58Z</time>
      </trkpt>
      <trkpt lat="44.536" lon="6.64525">
        <ele>1746.85</ele>
        <time>2023-04-18T06:31:21Z</time>
      </trkpt>
      <trkpt lat="44.5359" lon="6.64536">
        <ele>1745.41</ele>
        <time>2023-04-18T06:33:17Z</time>
      </trkpt>
      <trkpt lat="44.53596" lon="6.64529">
        <ele>1747.33</ele>
        <time>2023-04-18T06:34:06Z</time>
      </trkpt>
      <trkpt lat="44.53605" lon="6.64536">
        <ele>1747.33</ele>
        <time>2023-04-18T06:34:19Z</time>
      </trkpt>
      <trkpt lat="44.53619" lon="6.64534">
        <ele>1748.78</ele>
        <time>2023-04-18T06:34:37Z</time>
      </trkpt>
      <trkpt lat="44.53627" lon="6.6454">
        <ele>1750.7</ele>
        <time>2023-04-18T06:34:55Z</time>
      </trkpt>
      <trkpt lat="44.53649" lon="6.64549">
        <ele>1752.14</ele>
        <time>2023-04-18T06:35:22Z</time>
      </trkpt>
      <trkpt lat="44.53661" lon="6.64554">
        <ele>1752.62</ele>
        <time>2023-04-18T06:35:37Z</time>
      </trkpt>
      <trkpt lat="44.53654" lon="6.64563">
        <ele>1755.02</ele>
        <time>2023-04-18T06:36:04Z</time>
      </trkpt>
      <trkpt lat="44.53644" lon="6.64566">
        <ele>1756.47</ele>
        <time>2023-04-18T06:36:18Z</time>
      </trkpt>
      <trkpt lat="44.53631" lon="6.64571">
        <ele>1757.43</ele>
        <time>2023-04-18T06:36:34Z</time>
      </trkpt>
      <trkpt lat="44.53621" lon="6.64571">
        <ele>1757.91</ele>
        <time>2023-04-18T06:36:48Z</time>
      </trkpt>
      <trkpt lat="44.53598" lon="6.64574">
        <ele>1758.39</ele>
        <time>2023-04-18T06:37:10Z</time>
      </trkpt>
      <trkpt lat="44.53582" lon="6.64579">
        <ele>1758.87</ele>
        <time>2023-04-18T06:37:24Z</time>
      </trkpt>
      <trkpt lat="44.53574" lon="6.64584">
        <ele>1760.31</ele>
        <time>2023-04-18T06:37:40Z</time>
      </trkpt>
      <trkpt lat="44.53569" lon="6.64584">
        <ele>1761.27</ele>
        <time>2023-04-18T06:38:21Z</time>
      </trkpt>
      <trkpt lat="44.53547" lon="6.64583">
        <ele>1761.75</ele>
        <time>2023-04-18T06:38:46Z</time>
      </trkpt>
      <trkpt lat="44.53525" lon="6.64586">
        <ele>1763.68</ele>
        <time>2023-04-18T06:39:21Z</time>
      </trkpt>
      <trkpt lat="44.53511" lon="6.64585">
        <ele>1765.6</ele>
        <time>2023-04-18T06:39:36Z</time>
      </trkpt>
      <trkpt lat="44.53492" lon="6.64587">
        <ele>1766.08</ele>
        <time>2023-04-18T06:39:55Z</time>
      </trkpt>
      <trkpt lat="44.53469" lon="6.6459">
        <ele>1766.08</ele>
        <time>2023-04-18T06:40:17Z</time>
      </trkpt>
      <trkpt lat="44.53449" lon="6.64594">
        <ele>1765.6</ele>
        <time>2023-04-18T06:40:35Z</time>
      </trkpt>
      <trkpt lat="44.53433" lon="6.646">
        <ele>1765.6</ele>
        <time>2023-04-18T06:40:52Z</time>
      </trkpt>
      <trkpt lat="44.53418" lon="6.64609">
        <ele>1765.6</ele>
        <time>2023-04-18T06:41:08Z</time>
      </trkpt>
      <trkpt lat="44.534" lon="6.64621">
        <ele>1763.68</ele>
        <time>2023-04-18T06:41:26Z</time>
      </trkpt>
      <trkpt lat="44.53377" lon="6.64631">
        <ele>1762.71</ele>
        <time>2023-04-18T06:41:45Z</time>
      </trkpt>
      <trkpt lat="44.53365" lon="6.64633">
        <ele>1762.23</ele>
        <time>2023-04-18T06:41:56Z</time>
      </trkpt>
      <trkpt lat="44.53344" lon="6.64643">
        <ele>1760.79</ele>
        <time>2023-04-18T06:42:18Z</time>
      </trkpt>
      <trkpt lat="44.53329" lon="6.64649">
        <ele>1760.79</ele>
        <time>2023-04-18T06:42:33Z</time>
      </trkpt>
      <trkpt lat="44.53314" lon="6.64653">
        <ele>1761.75</ele>
        <time>2023-04-18T06:42:49Z</time>
      </trkpt>
      <trkpt lat="44.53303" lon="6.64654">
        <ele>1762.71</ele>
        <time>2023-04-18T06:43:03Z</time>
      </trkpt>
      <trkpt lat="44.53278" lon="6.64648">
        <ele>1764.16</ele>
        <time>2023-04-18T06:43:30Z</time>
      </trkpt>
      <trkpt lat="44.53262" lon="6.64649">
        <ele>1765.6</ele>
        <time>2023-04-18T06:43:46Z</time>
      </trkpt>
      <trkpt lat="44.53248" lon="6.64653">
        <ele>1767.04</ele>
        <time>2023-04-18T06:44:01Z</time>
      </trkpt>
      <trkpt lat="44.53233" lon="6.64655">
        <ele>1767.52</ele>
        <time>2023-04-18T06:44:16Z</time>
      </trkpt>
      <trkpt lat="44.53209" lon="6.64663">
        <ele>1768.96</ele>
        <time>2023-04-18T06:44:40Z</time>
      </trkpt>
      <trkpt lat="44.53195" lon="6.64669">
        <ele>1769.44</ele>
        <time>2023-04-18T06:44:57Z</time>
      </trkpt>
      <trkpt lat="44.53182" lon="6.64668">
        <ele>1770.89</ele>
        <time>2023-04-18T06:45:12Z</time>
      </trkpt>
      <trkpt lat="44.53169" lon="6.64669">
        <ele>1771.37</ele>
        <time>2023-04-18T06:45:27Z</time>
      </trkpt>
      <trkpt lat="44.53157" lon="6.64669">
        <ele>1772.33</ele>
        <time>2023-04-18T06:45:42Z</time>
      </trkpt>
      <trkpt lat="44.53145" lon="6.6467">
        <ele>1773.29</ele>
        <time>2023-04-18T06:45:58Z</time>
      </trkpt>
      <trkpt lat="44.53135" lon="6.64668">
        <ele>1774.73</ele>
        <time>2023-04-18T06:46:12Z</time>
      </trkpt>
      <trkpt lat="44.53122" lon="6.64671">
        <ele>1775.69</ele>
        <time>2023-04-18T06:46:28Z</time>
      </trkpt>
      <trkpt lat="44.53109" lon="6.64677">
        <ele>1776.17</ele>
        <time>2023-04-18T06:46:44Z</time>
      </trkpt>
      <trkpt lat="44.53099" lon="6.64678">
        <ele>1777.13</ele>
        <time>2023-04-18T06:46:58Z</time>
      </trkpt>
      <trkpt lat="44.53089" lon="6.6468">
        <ele>1777.61</ele>
        <time>2023-04-18T06:47:11Z</time>
      </trkpt>
      <trkpt lat="44.53076" lon="6.64676">
        <ele>1778.58</ele>
        <time>2023-04-18T06:47:25Z</time>
      </trkpt>
      <trkpt lat="44.53065" lon="6.64672">
        <ele>1780.02</ele>
        <time>2023-04-18T06:47:42Z</time>
      </trkpt>
      <trkpt lat="44.53055" lon="6.64669">
        <ele>1781.46</ele>
        <time>2023-04-18T06:47:57Z</time>
      </trkpt>
      <trkpt lat="44.53044" lon="6.64667">
        <ele>1781.94</ele>
        <time>2023-04-18T06:48:11Z</time>
      </trkpt>
      <trkpt lat="44.53033" lon="6.64668">
        <ele>1782.9</ele>
        <time>2023-04-18T06:48:26Z</time>
      </trkpt>
      <trkpt lat="44.53021" lon="6.64663">
        <ele>1784.82</ele>
        <time>2023-04-18T06:48:42Z</time>
      </trkpt>
      <trkpt lat="44.53008" lon="6.64663">
        <ele>1786.27</ele>
        <time>2023-04-18T06:48:56Z</time>
      </trkpt>
      <trkpt lat="44.52991" lon="6.64664">
        <ele>1787.71</ele>
        <time>2023-04-18T06:49:17Z</time>
      </trkpt>
      <trkpt lat="44.5297" lon="6.64662">
        <ele>1790.11</ele>
        <time>2023-04-18T06:49:46Z</time>
      </trkpt>
      <trkpt lat="44.52956" lon="6.64656">
        <ele>1792.03</ele>
        <time>2023-04-18T06:50:03Z</time>
      </trkpt>
      <trkpt lat="44.5294" lon="6.64651">
        <ele>1793</ele>
        <time>2023-04-18T06:50:19Z</time>
      </trkpt>
      <trkpt lat="44.52931" lon="6.64648">
        <ele>1794.44</ele>
        <time>2023-04-18T06:50:32Z</time>
      </trkpt>
      <trkpt lat="44.52921" lon="6.64646">
        <ele>1794.92</ele>
        <time>2023-04-18T06:50:45Z</time>
      </trkpt>
      <trkpt lat="44.5291" lon="6.6464">
        <ele>1796.36</ele>
        <time>2023-04-18T06:51:00Z</time>
      </trkpt>
      <trkpt lat="44.52905" lon="6.64625">
        <ele>1796.84</ele>
        <time>2023-04-18T06:51:44Z</time>
      </trkpt>
      <trkpt lat="44.52898" lon="6.64621">
        <ele>1803.57</ele>
        <time>2023-04-18T06:52:33Z</time>
      </trkpt>
      <trkpt lat="44.52866" lon="6.64627">
        <ele>1806.94</ele>
        <time>2023-04-18T06:53:05Z</time>
      </trkpt>
      <trkpt lat="44.52876" lon="6.64636">
        <ele>1810.78</ele>
        <time>2023-04-18T06:53:32Z</time>
      </trkpt>
      <trkpt lat="44.52868" lon="6.64647">
        <ele>1816.07</ele>
        <time>2023-04-18T06:54:22Z</time>
      </trkpt>
      <trkpt lat="44.52853" lon="6.64656">
        <ele>1817.51</ele>
        <time>2023-04-18T06:54:47Z</time>
      </trkpt>
      <trkpt lat="44.5284" lon="6.6467">
        <ele>1818.95</ele>
        <time>2023-04-18T06:55:07Z</time>
      </trkpt>
      <trkpt lat="44.52827" lon="6.64675">
        <ele>1819.91</ele>
        <time>2023-04-18T06:55:23Z</time>
      </trkpt>
      <trkpt lat="44.52816" lon="6.64673">
        <ele>1820.87</ele>
        <time>2023-04-18T06:55:51Z</time>
      </trkpt>
      <trkpt lat="44.52817" lon="6.64676">
        <ele>1818.47</ele>
        <time>2023-04-18T06:56:58Z</time>
      </trkpt>
      <trkpt lat="44.5282" lon="6.64679">
        <ele>1819.43</ele>
        <time>2023-04-18T06:57:47Z</time>
      </trkpt>
      <trkpt lat="44.52817" lon="6.64678">
        <ele>1820.39</ele>
        <time>2023-04-18T06:58:48Z</time>
      </trkpt>
      <trkpt lat="44.52807" lon="6.64677">
        <ele>1823.76</ele>
        <time>2023-04-18T06:59:15Z</time>
      </trkpt>
      <trkpt lat="44.52797" lon="6.6467">
        <ele>1827.6</ele>
        <time>2023-04-18T06:59:38Z</time>
      </trkpt>
      <trkpt lat="44.52786" lon="6.64665">
        <ele>1830.49</ele>
        <time>2023-04-18T07:00:01Z</time>
      </trkpt>
      <trkpt lat="44.52784" lon="6.64649">
        <ele>1833.85</ele>
        <time>2023-04-18T07:00:25Z</time>
      </trkpt>
      <trkpt lat="44.52779" lon="6.64631">
        <ele>1837.22</ele>
        <time>2023-04-18T07:00:51Z</time>
      </trkpt>
      <trkpt lat="44.52777" lon="6.64618">
        <ele>1841.06</ele>
        <time>2023-04-18T07:01:17Z</time>
      </trkpt>
      <trkpt lat="44.5277" lon="6.64623">
        <ele>1843.95</ele>
        <time>2023-04-18T07:01:54Z</time>
      </trkpt>
      <trkpt lat="44.52765" lon="6.6464">
        <ele>1849.23</ele>
        <time>2023-04-18T07:02:32Z</time>
      </trkpt>
      <trkpt lat="44.52748" lon="6.64643">
        <ele>1853.56</ele>
        <time>2023-04-18T07:03:03Z</time>
      </trkpt>
      <trkpt lat="44.52743" lon="6.64631">
        <ele>1855.96</ele>
        <time>2023-04-18T07:03:19Z</time>
      </trkpt>
      <trkpt lat="44.52744" lon="6.64616">
        <ele>1859.81</ele>
        <time>2023-04-18T07:03:53Z</time>
      </trkpt>
      <trkpt lat="44.52743" lon="6.646">
        <ele>1862.21</ele>
        <time>2023-04-18T07:04:38Z</time>
      </trkpt>
      <trkpt lat="44.52736" lon="6.64593">
        <ele>1866.06</ele>
        <time>2023-04-18T07:05:02Z</time>
      </trkpt>
      <trkpt lat="44.52727" lon="6.64603">
        <ele>1869.42</ele>
        <time>2023-04-18T07:05:27Z</time>
      </trkpt>
      <trkpt lat="44.52719" lon="6.64612">
        <ele>1873.27</ele>
        <time>2023-04-18T07:05:57Z</time>
      </trkpt>
      <trkpt lat="44.52709" lon="6.64617">
        <ele>1879.03</ele>
        <time>2023-04-18T07:06:29Z</time>
      </trkpt>
      <trkpt lat="44.52699" lon="6.64616">
        <ele>1880.48</ele>
        <time>2023-04-18T07:06:52Z</time>
      </trkpt>
      <trkpt lat="44.52689" lon="6.64617">
        <ele>1883.36</ele>
        <time>2023-04-18T07:07:16Z</time>
      </trkpt>
      <trkpt lat="44.52683" lon="6.64604">
        <ele>1887.21</ele>
        <time>2023-04-18T07:07:43Z</time>
      </trkpt>
      <trkpt lat="44.52688" lon="6.64584">
        <ele>1892.01</ele>
        <time>2023-04-18T07:08:17Z</time>
      </trkpt>
      <trkpt lat="44.52679" lon="6.64582">
        <ele>1897.3</ele>
        <time>2023-04-18T07:09:01Z</time>
      </trkpt>
      <trkpt lat="44.5267" lon="6.64579">
        <ele>1901.14</ele>
        <time>2023-04-18T07:09:22Z</time>
      </trkpt>
      <trkpt lat="44.52668" lon="6.64565">
        <ele>1904.03</ele>
        <time>2023-04-18T07:09:40Z</time>
      </trkpt>
      <trkpt lat="44.52671" lon="6.64548">
        <ele>1907.39</ele>
        <time>2023-04-18T07:10:06Z</time>
      </trkpt>
      <trkpt lat="44.52667" lon="6.64544">
        <ele>1910.28</ele>
        <time>2023-04-18T07:11:02Z</time>
      </trkpt>
      <trkpt lat="44.52667" lon="6.64546">
        <ele>1910.76</ele>
        <time>2023-04-18T07:12:57Z</time>
      </trkpt>
      <trkpt lat="44.52662" lon="6.64542">
        <ele>1911.24</ele>
        <time>2023-04-18T07:14:07Z</time>
      </trkpt>
      <trkpt lat="44.5265" lon="6.64542">
        <ele>1915.56</ele>
        <time>2023-04-18T07:14:32Z</time>
      </trkpt>
      <trkpt lat="44.52642" lon="6.64532">
        <ele>1919.41</ele>
        <time>2023-04-18T07:14:56Z</time>
      </trkpt>
      <trkpt lat="44.52641" lon="6.64514">
        <ele>1924.22</ele>
        <time>2023-04-18T07:15:26Z</time>
      </trkpt>
      <trkpt lat="44.52635" lon="6.64512">
        <ele>1929.5</ele>
        <time>2023-04-18T07:16:07Z</time>
      </trkpt>
      <trkpt lat="44.52639" lon="6.64503">
        <ele>1930.46</ele>
        <time>2023-04-18T07:16:25Z</time>
      </trkpt>
      <trkpt lat="44.52645" lon="6.64491">
        <ele>1934.31</ele>
        <time>2023-04-18T07:16:49Z</time>
      </trkpt>
      <trkpt lat="44.52652" lon="6.64478">
        <ele>1938.16</ele>
        <time>2023-04-18T07:17:16Z</time>
      </trkpt>
      <trkpt lat="44.52658" lon="6.64468">
        <ele>1941.04</ele>
        <time>2023-04-18T07:17:38Z</time>
      </trkpt>
      <trkpt lat="44.52665" lon="6.64452">
        <ele>1944.88</ele>
        <time>2023-04-18T07:18:03Z</time>
      </trkpt>
      <trkpt lat="44.5267" lon="6.6444">
        <ele>1947.77</ele>
        <time>2023-04-18T07:18:27Z</time>
      </trkpt>
      <trkpt lat="44.52674" lon="6.64425">
        <ele>1951.13</ele>
        <time>2023-04-18T07:18:52Z</time>
      </trkpt>
      <trkpt lat="44.52667" lon="6.64424">
        <ele>1953.54</ele>
        <time>2023-04-18T07:19:58Z</time>
      </trkpt>
      <trkpt lat="44.52653" lon="6.6442">
        <ele>1955.94</ele>
        <time>2023-04-18T07:20:22Z</time>
      </trkpt>
      <trkpt lat="44.5264" lon="6.64416">
        <ele>1959.3</ele>
        <time>2023-04-18T07:20:47Z</time>
      </trkpt>
      <trkpt lat="44.5263" lon="6.64419">
        <ele>1962.19</ele>
        <time>2023-04-18T07:21:10Z</time>
      </trkpt>
      <trkpt lat="44.52624" lon="6.64413">
        <ele>1966.03</ele>
        <time>2023-04-18T07:21:33Z</time>
      </trkpt>
      <trkpt lat="44.52625" lon="6.64399">
        <ele>1968.92</ele>
        <time>2023-04-18T07:21:54Z</time>
      </trkpt>
      <trkpt lat="44.52626" lon="6.64386">
        <ele>1972.28</ele>
        <time>2023-04-18T07:22:18Z</time>
      </trkpt>
      <trkpt lat="44.52617" lon="6.64391">
        <ele>1975.65</ele>
        <time>2023-04-18T07:22:41Z</time>
      </trkpt>
      <trkpt lat="44.52607" lon="6.64399">
        <ele>1978.53</ele>
        <time>2023-04-18T07:23:05Z</time>
      </trkpt>
      <trkpt lat="44.52597" lon="6.64407">
        <ele>1981.9</ele>
        <time>2023-04-18T07:23:28Z</time>
      </trkpt>
      <trkpt lat="44.52588" lon="6.64415">
        <ele>1984.78</ele>
        <time>2023-04-18T07:23:51Z</time>
      </trkpt>
      <trkpt lat="44.52579" lon="6.64424">
        <ele>1988.14</ele>
        <time>2023-04-18T07:24:16Z</time>
      </trkpt>
      <trkpt lat="44.52573" lon="6.64423">
        <ele>1989.1</ele>
        <time>2023-04-18T07:25:38Z</time>
      </trkpt>
      <trkpt lat="44.52565" lon="6.64415">
        <ele>1988.62</ele>
        <time>2023-04-18T07:26:15Z</time>
      </trkpt>
      <trkpt lat="44.52571" lon="6.6442">
        <ele>1990.55</ele>
        <time>2023-04-18T07:27:26Z</time>
      </trkpt>
      <trkpt lat="44.52558" lon="6.64424">
        <ele>1993.91</ele>
        <time>2023-04-18T07:28:13Z</time>
      </trkpt>
      <trkpt lat="44.52544" lon="6.64428">
        <ele>1997.76</ele>
        <time>2023-04-18T07:28:51Z</time>
      </trkpt>
      <trkpt lat="44.52535" lon="6.6443">
        <ele>2000.64</ele>
        <time>2023-04-18T07:29:14Z</time>
      </trkpt>
      <trkpt lat="44.52524" lon="6.6444">
        <ele>2003.52</ele>
        <time>2023-04-18T07:29:40Z</time>
      </trkpt>
      <trkpt lat="44.52515" lon="6.64446">
        <ele>2006.89</ele>
        <time>2023-04-18T07:30:02Z</time>
      </trkpt>
      <trkpt lat="44.52508" lon="6.64445">
        <ele>2011.22</ele>
        <time>2023-04-18T07:30:50Z</time>
      </trkpt>
      <trkpt lat="44.52507" lon="6.6445">
        <ele>2013.62</ele>
        <time>2023-04-18T07:31:41Z</time>
      </trkpt>
      <trkpt lat="44.52502" lon="6.64449">
        <ele>2016.02</ele>
        <time>2023-04-18T07:32:17Z</time>
      </trkpt>
      <trkpt lat="44.52494" lon="6.64454">
        <ele>2018.91</ele>
        <time>2023-04-18T07:32:52Z</time>
      </trkpt>
      <trkpt lat="44.52484" lon="6.6446">
        <ele>2022.75</ele>
        <time>2023-04-18T07:33:23Z</time>
      </trkpt>
      <trkpt lat="44.52475" lon="6.64456">
        <ele>2026.12</ele>
        <time>2023-04-18T07:33:54Z</time>
      </trkpt>
      <trkpt lat="44.52477" lon="6.64446">
        <ele>2029.48</ele>
        <time>2023-04-18T07:34:26Z</time>
      </trkpt>
      <trkpt lat="44.52465" lon="6.64448">
        <ele>2033.33</ele>
        <time>2023-04-18T07:34:50Z</time>
      </trkpt>
      <trkpt lat="44.52454" lon="6.6445">
        <ele>2036.21</ele>
        <time>2023-04-18T07:35:14Z</time>
      </trkpt>
      <trkpt lat="44.52442" lon="6.64452">
        <ele>2040.54</ele>
        <time>2023-04-18T07:35:44Z</time>
      </trkpt>
      <trkpt lat="44.52441" lon="6.64441">
        <ele>2044.38</ele>
        <time>2023-04-18T07:36:18Z</time>
      </trkpt>
      <trkpt lat="44.52447" lon="6.64427">
        <ele>2047.26</ele>
        <time>2023-04-18T07:36:41Z</time>
      </trkpt>
      <trkpt lat="44.52438" lon="6.64425">
        <ele>2051.59</ele>
        <time>2023-04-18T07:37:31Z</time>
      </trkpt>
      <trkpt lat="44.5243" lon="6.64426">
        <ele>2055.92</ele>
        <time>2023-04-18T07:38:14Z</time>
      </trkpt>
      <trkpt lat="44.52425" lon="6.64423">
        <ele>2058.32</ele>
        <time>2023-04-18T07:39:13Z</time>
      </trkpt>
      <trkpt lat="44.52427" lon="6.64424">
        <ele>2058.32</ele>
        <time>2023-04-18T07:41:37Z</time>
      </trkpt>
      <trkpt lat="44.52418" lon="6.64429">
        <ele>2060.72</ele>
        <time>2023-04-18T07:42:00Z</time>
      </trkpt>
      <trkpt lat="44.5241" lon="6.64435">
        <ele>2064.09</ele>
        <time>2023-04-18T07:42:24Z</time>
      </trkpt>
      <trkpt lat="44.52395" lon="6.6444">
        <ele>2068.41</ele>
        <time>2023-04-18T07:43:03Z</time>
      </trkpt>
      <trkpt lat="44.52384" lon="6.64448">
        <ele>2071.78</ele>
        <time>2023-04-18T07:43:29Z</time>
      </trkpt>
      <trkpt lat="44.52373" lon="6.64445">
        <ele>2075.62</ele>
        <time>2023-04-18T07:44:03Z</time>
      </trkpt>
      <trkpt lat="44.52365" lon="6.64442">
        <ele>2078.51</ele>
        <time>2023-04-18T07:44:28Z</time>
      </trkpt>
      <trkpt lat="44.52355" lon="6.64443">
        <ele>2082.83</ele>
        <time>2023-04-18T07:45:03Z</time>
      </trkpt>
      <trkpt lat="44.52346" lon="6.64442">
        <ele>2084.28</ele>
        <time>2023-04-18T07:45:26Z</time>
      </trkpt>
      <trkpt lat="44.5234" lon="6.64453">
        <ele>2086.2</ele>
        <time>2023-04-18T07:45:47Z</time>
      </trkpt>
      <trkpt lat="44.52339" lon="6.64466">
        <ele>2088.6</ele>
        <time>2023-04-18T07:46:09Z</time>
      </trkpt>
      <trkpt lat="44.5233" lon="6.64479">
        <ele>2093.41</ele>
        <time>2023-04-18T07:46:43Z</time>
      </trkpt>
      <trkpt lat="44.52325" lon="6.64493">
        <ele>2096.29</ele>
        <time>2023-04-18T07:47:08Z</time>
      </trkpt>
      <trkpt lat="44.5232" lon="6.64508">
        <ele>2098.21</ele>
        <time>2023-04-18T07:47:33Z</time>
      </trkpt>
      <trkpt lat="44.52314" lon="6.64522">
        <ele>2100.14</ele>
        <time>2023-04-18T07:47:57Z</time>
      </trkpt>
      <trkpt lat="44.52302" lon="6.64522">
        <ele>2102.54</ele>
        <time>2023-04-18T07:48:22Z</time>
      </trkpt>
      <trkpt lat="44.52291" lon="6.64527">
        <ele>2105.91</ele>
        <time>2023-04-18T07:48:55Z</time>
      </trkpt>
      <trkpt lat="44.52281" lon="6.64535">
        <ele>2108.31</ele>
        <time>2023-04-18T07:49:17Z</time>
      </trkpt>
      <trkpt lat="44.52274" lon="6.64546">
        <ele>2110.23</ele>
        <time>2023-04-18T07:49:41Z</time>
      </trkpt>
      <trkpt lat="44.52267" lon="6.64556">
        <ele>2113.12</ele>
        <time>2023-04-18T07:50:07Z</time>
      </trkpt>
      <trkpt lat="44.52267" lon="6.64571">
        <ele>2116.48</ele>
        <time>2023-04-18T07:50:35Z</time>
      </trkpt>
      <trkpt lat="44.52266" lon="6.64587">
        <ele>2120.32</ele>
        <time>2023-04-18T07:51:05Z</time>
      </trkpt>
      <trkpt lat="44.52251" lon="6.64585">
        <ele>2124.17</ele>
        <time>2023-04-18T07:51:43Z</time>
      </trkpt>
      <trkpt lat="44.5224" lon="6.64587">
        <ele>2127.05</ele>
        <time>2023-04-18T07:52:09Z</time>
      </trkpt>
      <trkpt lat="44.52232" lon="6.64594">
        <ele>2130.42</ele>
        <time>2023-04-18T07:52:36Z</time>
      </trkpt>
      <trkpt lat="44.52224" lon="6.64601">
        <ele>2133.3</ele>
        <time>2023-04-18T07:53:04Z</time>
      </trkpt>
      <trkpt lat="44.52218" lon="6.64602">
        <ele>2136.19</ele>
        <time>2023-04-18T07:53:38Z</time>
      </trkpt>
      <trkpt lat="44.52222" lon="6.64589">
        <ele>2139.55</ele>
        <time>2023-04-18T07:54:17Z</time>
      </trkpt>
      <trkpt lat="44.52222" lon="6.64574">
        <ele>2141.95</ele>
        <time>2023-04-18T07:54:53Z</time>
      </trkpt>
      <trkpt lat="44.52215" lon="6.6458">
        <ele>2144.36</ele>
        <time>2023-04-18T07:55:18Z</time>
      </trkpt>
      <trkpt lat="44.5221" lon="6.64576">
        <ele>2148.2</ele>
        <time>2023-04-18T07:55:53Z</time>
      </trkpt>
      <trkpt lat="44.52202" lon="6.64578">
        <ele>2152.05</ele>
        <time>2023-04-18T07:56:28Z</time>
      </trkpt>
      <trkpt lat="44.52198" lon="6.64562">
        <ele>2154.93</ele>
        <time>2023-04-18T07:56:54Z</time>
      </trkpt>
      <trkpt lat="44.5219" lon="6.64567">
        <ele>2159.74</ele>
        <time>2023-04-18T07:57:41Z</time>
      </trkpt>
      <trkpt lat="44.52179" lon="6.64573">
        <ele>2164.06</ele>
        <time>2023-04-18T07:58:14Z</time>
      </trkpt>
      <trkpt lat="44.52168" lon="6.6458">
        <ele>2165.99</ele>
        <time>2023-04-18T07:58:37Z</time>
      </trkpt>
      <trkpt lat="44.52161" lon="6.64587">
        <ele>2170.31</ele>
        <time>2023-04-18T07:59:32Z</time>
      </trkpt>
      <trkpt lat="44.52156" lon="6.64598">
        <ele>2174.64</ele>
        <time>2023-04-18T08:00:06Z</time>
      </trkpt>
      <trkpt lat="44.52152" lon="6.64587">
        <ele>2176.56</ele>
        <time>2023-04-18T08:00:35Z</time>
      </trkpt>
      <trkpt lat="44.52146" lon="6.64589">
        <ele>2178.97</ele>
        <time>2023-04-18T08:01:21Z</time>
      </trkpt>
      <trkpt lat="44.52138" lon="6.64597">
        <ele>2182.33</ele>
        <time>2023-04-18T08:01:46Z</time>
      </trkpt>
      <trkpt lat="44.52126" lon="6.646">
        <ele>2185.21</ele>
        <time>2023-04-18T08:02:13Z</time>
      </trkpt>
      <trkpt lat="44.52114" lon="6.64603">
        <ele>2190.98</ele>
        <time>2023-04-18T08:02:52Z</time>
      </trkpt>
      <trkpt lat="44.52102" lon="6.64608">
        <ele>2185.21</ele>
        <time>2023-04-18T08:03:28Z</time>
      </trkpt>
      <trkpt lat="44.52095" lon="6.64615">
        <ele>2198.67</ele>
        <time>2023-04-18T08:04:00Z</time>
      </trkpt>
      <trkpt lat="44.52093" lon="6.646">
        <ele>2202.52</ele>
        <time>2023-04-18T08:04:33Z</time>
      </trkpt>
      <trkpt lat="44.52092" lon="6.6459">
        <ele>2206.36</ele>
        <time>2023-04-18T08:04:57Z</time>
      </trkpt>
      <trkpt lat="44.5209" lon="6.64578">
        <ele>2210.21</ele>
        <time>2023-04-18T08:05:32Z</time>
      </trkpt>
      <trkpt lat="44.52094" lon="6.64566">
        <ele>2213.09</ele>
        <time>2023-04-18T08:05:55Z</time>
      </trkpt>
      <trkpt lat="44.52082" lon="6.64558">
        <ele>2215.98</ele>
        <time>2023-04-18T08:06:21Z</time>
      </trkpt>
      <trkpt lat="44.52082" lon="6.64545">
        <ele>2219.34</ele>
        <time>2023-04-18T08:06:48Z</time>
      </trkpt>
      <trkpt lat="44.52071" lon="6.64541">
        <ele>2223.19</ele>
        <time>2023-04-18T08:07:23Z</time>
      </trkpt>
      <trkpt lat="44.52063" lon="6.6453">
        <ele>2227.51</ele>
        <time>2023-04-18T08:07:56Z</time>
      </trkpt>
      <trkpt lat="44.52053" lon="6.64519">
        <ele>2232.32</ele>
        <time>2023-04-18T08:08:36Z</time>
      </trkpt>
      <trkpt lat="44.52046" lon="6.64506">
        <ele>2237.13</ele>
        <time>2023-04-18T08:09:19Z</time>
      </trkpt>
      <trkpt lat="44.52041" lon="6.645">
        <ele>2240.49</ele>
        <time>2023-04-18T08:09:43Z</time>
      </trkpt>
      <trkpt lat="44.52039" lon="6.64484">
        <ele>2242.89</ele>
        <time>2023-04-18T08:10:10Z</time>
      </trkpt>
      <trkpt lat="44.52034" lon="6.64472">
        <ele>2245.78</ele>
        <time>2023-04-18T08:10:33Z</time>
      </trkpt>
      <trkpt lat="44.52029" lon="6.64467">
        <ele>2251.06</ele>
        <time>2023-04-18T08:11:09Z</time>
      </trkpt>
      <trkpt lat="44.52031" lon="6.64457">
        <ele>2249.62</ele>
        <time>2023-04-18T08:12:12Z</time>
      </trkpt>
      <trkpt lat="44.52025" lon="6.64453">
        <ele>2252.03</ele>
        <time>2023-04-18T08:13:37Z</time>
      </trkpt>
      <trkpt lat="44.52025" lon="6.6446">
        <ele>2251.06</ele>
        <time>2023-04-18T08:15:02Z</time>
      </trkpt>
      <trkpt lat="44.52033" lon="6.64458">
        <ele>2253.47</ele>
        <time>2023-04-18T08:17:00Z</time>
      </trkpt>
      <trkpt lat="44.52023" lon="6.64453">
        <ele>2257.31</ele>
        <time>2023-04-18T08:17:46Z</time>
      </trkpt>
      <trkpt lat="44.52017" lon="6.64446">
        <ele>2261.64</ele>
        <time>2023-04-18T08:18:27Z</time>
      </trkpt>
      <trkpt lat="44.52017" lon="6.64434">
        <ele>2264.52</ele>
        <time>2023-04-18T08:18:55Z</time>
      </trkpt>
      <trkpt lat="44.52007" lon="6.64442">
        <ele>2266.93</ele>
        <time>2023-04-18T08:19:20Z</time>
      </trkpt>
      <trkpt lat="44.51998" lon="6.64454">
        <ele>2270.29</ele>
        <time>2023-04-18T08:19:50Z</time>
      </trkpt>
      <trkpt lat="44.51993" lon="6.64447">
        <ele>2275.1</ele>
        <time>2023-04-18T08:20:29Z</time>
      </trkpt>
      <trkpt lat="44.51985" lon="6.64442">
        <ele>2279.9</ele>
        <time>2023-04-18T08:21:10Z</time>
      </trkpt>
      <trkpt lat="44.51984" lon="6.64429">
        <ele>2283.75</ele>
        <time>2023-04-18T08:21:36Z</time>
      </trkpt>
      <trkpt lat="44.51975" lon="6.64425">
        <ele>2287.59</ele>
        <time>2023-04-18T08:22:16Z</time>
      </trkpt>
      <trkpt lat="44.51963" lon="6.64433">
        <ele>2291.44</ele>
        <time>2023-04-18T08:22:44Z</time>
      </trkpt>
      <trkpt lat="44.51956" lon="6.64425">
        <ele>2295.77</ele>
        <time>2023-04-18T08:23:18Z</time>
      </trkpt>
      <trkpt lat="44.51951" lon="6.64405">
        <ele>2299.13</ele>
        <time>2023-04-18T08:23:49Z</time>
      </trkpt>
      <trkpt lat="44.51947" lon="6.64394">
        <ele>2302.01</ele>
        <time>2023-04-18T08:24:15Z</time>
      </trkpt>
      <trkpt lat="44.51936" lon="6.64402">
        <ele>2305.38</ele>
        <time>2023-04-18T08:24:43Z</time>
      </trkpt>
      <trkpt lat="44.5193" lon="6.64394">
        <ele>2309.22</ele>
        <time>2023-04-18T08:25:20Z</time>
      </trkpt>
      <trkpt lat="44.51934" lon="6.64377">
        <ele>2312.11</ele>
        <time>2023-04-18T08:25:50Z</time>
      </trkpt>
      <trkpt lat="44.51939" lon="6.64363">
        <ele>2315.47</ele>
        <time>2023-04-18T08:26:20Z</time>
      </trkpt>
      <trkpt lat="44.51941" lon="6.64345">
        <ele>2318.84</ele>
        <time>2023-04-18T08:26:48Z</time>
      </trkpt>
      <trkpt lat="44.51941" lon="6.64329">
        <ele>2322.2</ele>
        <time>2023-04-18T08:27:17Z</time>
      </trkpt>
      <trkpt lat="44.51935" lon="6.64322">
        <ele>2325.57</ele>
        <time>2023-04-18T08:27:44Z</time>
      </trkpt>
      <trkpt lat="44.51929" lon="6.6431">
        <ele>2328.45</ele>
        <time>2023-04-18T08:28:09Z</time>
      </trkpt>
      <trkpt lat="44.51927" lon="6.64293">
        <ele>2330.85</ele>
        <time>2023-04-18T08:28:36Z</time>
      </trkpt>
      <trkpt lat="44.5193" lon="6.64277">
        <ele>2334.22</ele>
        <time>2023-04-18T08:29:05Z</time>
      </trkpt>
      <trkpt lat="44.51933" lon="6.64262">
        <ele>2337.58</ele>
        <time>2023-04-18T08:29:31Z</time>
      </trkpt>
      <trkpt lat="44.51934" lon="6.64245">
        <ele>2340.47</ele>
        <time>2023-04-18T08:29:58Z</time>
      </trkpt>
      <trkpt lat="44.51937" lon="6.64226">
        <ele>2343.83</ele>
        <time>2023-04-18T08:30:38Z</time>
      </trkpt>
      <trkpt lat="44.51937" lon="6.64211">
        <ele>2346.23</ele>
        <time>2023-04-18T08:31:03Z</time>
      </trkpt>
      <trkpt lat="44.51935" lon="6.64199">
        <ele>2348.64</ele>
        <time>2023-04-18T08:31:31Z</time>
      </trkpt>
      <trkpt lat="44.51933" lon="6.64187">
        <ele>2351.52</ele>
        <time>2023-04-18T08:32:04Z</time>
      </trkpt>
      <trkpt lat="44.51921" lon="6.64193">
        <ele>2354.89</ele>
        <time>2023-04-18T08:32:38Z</time>
      </trkpt>
      <trkpt lat="44.51912" lon="6.64197">
        <ele>2357.77</ele>
        <time>2023-04-18T08:33:06Z</time>
      </trkpt>
      <trkpt lat="44.51905" lon="6.64204">
        <ele>2360.17</ele>
        <time>2023-04-18T08:33:33Z</time>
      </trkpt>
      <trkpt lat="44.51897" lon="6.64205">
        <ele>2363.54</ele>
        <time>2023-04-18T08:34:09Z</time>
      </trkpt>
      <trkpt lat="44.51898" lon="6.6419">
        <ele>2365.94</ele>
        <time>2023-04-18T08:34:36Z</time>
      </trkpt>
      <trkpt lat="44.519" lon="6.64177">
        <ele>2368.35</ele>
        <time>2023-04-18T08:35:01Z</time>
      </trkpt>
      <trkpt lat="44.519" lon="6.64163">
        <ele>2371.71</ele>
        <time>2023-04-18T08:35:38Z</time>
      </trkpt>
      <trkpt lat="44.51895" lon="6.64159">
        <ele>2374.11</ele>
        <time>2023-04-18T08:36:12Z</time>
      </trkpt>
      <trkpt lat="44.51897" lon="6.64143">
        <ele>2378.44</ele>
        <time>2023-04-18T08:36:50Z</time>
      </trkpt>
      <trkpt lat="44.5189" lon="6.64137">
        <ele>2381.32</ele>
        <time>2023-04-18T08:37:27Z</time>
      </trkpt>
      <trkpt lat="44.51891" lon="6.6412">
        <ele>2386.13</ele>
        <time>2023-04-18T08:38:12Z</time>
      </trkpt>
      <trkpt lat="44.51885" lon="6.64106">
        <ele>2390.94</ele>
        <time>2023-04-18T08:38:51Z</time>
      </trkpt>
      <trkpt lat="44.5188" lon="6.64093">
        <ele>2394.3</ele>
        <time>2023-04-18T08:39:27Z</time>
      </trkpt>
      <trkpt lat="44.5187" lon="6.64095">
        <ele>2398.15</ele>
        <time>2023-04-18T08:40:05Z</time>
      </trkpt>
      <trkpt lat="44.51865" lon="6.64085">
        <ele>2402.47</ele>
        <time>2023-04-18T08:41:09Z</time>
      </trkpt>
      <trkpt lat="44.51861" lon="6.64068">
        <ele>2406.32</ele>
        <time>2023-04-18T08:41:46Z</time>
      </trkpt>
      <trkpt lat="44.51859" lon="6.6405">
        <ele>2411.12</ele>
        <time>2023-04-18T08:42:27Z</time>
      </trkpt>
      <trkpt lat="44.51849" lon="6.64056">
        <ele>2415.93</ele>
        <time>2023-04-18T08:43:03Z</time>
      </trkpt>
      <trkpt lat="44.51834" lon="6.64063">
        <ele>2419.3</ele>
        <time>2023-04-18T08:43:36Z</time>
      </trkpt>
      <trkpt lat="44.51831" lon="6.64053">
        <ele>2421.7</ele>
        <time>2023-04-18T08:43:59Z</time>
      </trkpt>
      <trkpt lat="44.51828" lon="6.64036">
        <ele>2425.54</ele>
        <time>2023-04-18T08:44:39Z</time>
      </trkpt>
      <trkpt lat="44.51815" lon="6.64038">
        <ele>2429.87</ele>
        <time>2023-04-18T08:45:20Z</time>
      </trkpt>
      <trkpt lat="44.51804" lon="6.64047">
        <ele>2433.71</ele>
        <time>2023-04-18T08:46:02Z</time>
      </trkpt>
      <trkpt lat="44.51795" lon="6.64055">
        <ele>2437.08</ele>
        <time>2023-04-18T08:46:40Z</time>
      </trkpt>
      <trkpt lat="44.51792" lon="6.64035">
        <ele>2440.92</ele>
        <time>2023-04-18T08:47:18Z</time>
      </trkpt>
      <trkpt lat="44.51785" lon="6.64031">
        <ele>2443.81</ele>
        <time>2023-04-18T08:47:51Z</time>
      </trkpt>
      <trkpt lat="44.51779" lon="6.6404">
        <ele>2447.17</ele>
        <time>2023-04-18T08:48:26Z</time>
      </trkpt>
      <trkpt lat="44.51774" lon="6.64027">
        <ele>2450.54</ele>
        <time>2023-04-18T08:49:19Z</time>
      </trkpt>
      <trkpt lat="44.51762" lon="6.64037">
        <ele>2455.34</ele>
        <time>2023-04-18T08:49:55Z</time>
      </trkpt>
      <trkpt lat="44.5176" lon="6.64024">
        <ele>2459.19</ele>
        <time>2023-04-18T08:50:25Z</time>
      </trkpt>
      <trkpt lat="44.51753" lon="6.64015">
        <ele>2463.52</ele>
        <time>2023-04-18T08:51:02Z</time>
      </trkpt>
      <trkpt lat="44.51742" lon="6.64026">
        <ele>2466.88</ele>
        <time>2023-04-18T08:51:29Z</time>
      </trkpt>
      <trkpt lat="44.51739" lon="6.64011">
        <ele>2470.73</ele>
        <time>2023-04-18T08:51:58Z</time>
      </trkpt>
      <trkpt lat="44.51739" lon="6.63991">
        <ele>2475.05</ele>
        <time>2023-04-18T08:52:36Z</time>
      </trkpt>
      <trkpt lat="44.51724" lon="6.63998">
        <ele>2479.38</ele>
        <time>2023-04-18T08:53:11Z</time>
      </trkpt>
      <trkpt lat="44.51727" lon="6.63985">
        <ele>2482.74</ele>
        <time>2023-04-18T08:53:33Z</time>
      </trkpt>
      <trkpt lat="44.51728" lon="6.63972">
        <ele>2485.63</ele>
        <time>2023-04-18T08:53:56Z</time>
      </trkpt>
      <trkpt lat="44.51722" lon="6.63965">
        <ele>2489.95</ele>
        <time>2023-04-18T08:54:32Z</time>
      </trkpt>
      <trkpt lat="44.51717" lon="6.63961">
        <ele>2493.32</ele>
        <time>2023-04-18T08:55:00Z</time>
      </trkpt>
      <trkpt lat="44.51718" lon="6.63947">
        <ele>2497.64</ele>
        <time>2023-04-18T08:55:36Z</time>
      </trkpt>
      <trkpt lat="44.51709" lon="6.63944">
        <ele>2501.01</ele>
        <time>2023-04-18T08:56:09Z</time>
      </trkpt>
      <trkpt lat="44.51696" lon="6.63953">
        <ele>2503.89</ele>
        <time>2023-04-18T08:56:43Z</time>
      </trkpt>
      <trkpt lat="44.51687" lon="6.63961">
        <ele>2506.77</ele>
        <time>2023-04-18T08:57:13Z</time>
      </trkpt>
      <trkpt lat="44.51677" lon="6.63971">
        <ele>2511.1</ele>
        <time>2023-04-18T08:57:49Z</time>
      </trkpt>
      <trkpt lat="44.51667" lon="6.63976">
        <ele>2513.98</ele>
        <time>2023-04-18T08:58:14Z</time>
      </trkpt>
      <trkpt lat="44.51654" lon="6.6398">
        <ele>2516.87</ele>
        <time>2023-04-18T08:58:45Z</time>
      </trkpt>
      <trkpt lat="44.51645" lon="6.63983">
        <ele>2519.75</ele>
        <time>2023-04-18T08:59:22Z</time>
      </trkpt>
      <trkpt lat="44.51651" lon="6.63967">
        <ele>2524.08</ele>
        <time>2023-04-18T09:00:03Z</time>
      </trkpt>
      <trkpt lat="44.51648" lon="6.63959">
        <ele>2527.44</ele>
        <time>2023-04-18T09:00:42Z</time>
      </trkpt>
      <trkpt lat="44.51651" lon="6.63946">
        <ele>2531.29</ele>
        <time>2023-04-18T09:01:23Z</time>
      </trkpt>
      <trkpt lat="44.51655" lon="6.63933">
        <ele>2534.65</ele>
        <time>2023-04-18T09:01:51Z</time>
      </trkpt>
      <trkpt lat="44.51659" lon="6.6392">
        <ele>2536.58</ele>
        <time>2023-04-18T09:02:14Z</time>
      </trkpt>
      <trkpt lat="44.51662" lon="6.63908">
        <ele>2538.98</ele>
        <time>2023-04-18T09:02:39Z</time>
      </trkpt>
      <trkpt lat="44.51666" lon="6.63891">
        <ele>2542.34</ele>
        <time>2023-04-18T09:03:14Z</time>
      </trkpt>
      <trkpt lat="44.51669" lon="6.63875">
        <ele>2544.27</ele>
        <time>2023-04-18T09:03:36Z</time>
      </trkpt>
      <trkpt lat="44.51671" lon="6.63861">
        <ele>2547.63</ele>
        <time>2023-04-18T09:04:11Z</time>
      </trkpt>
      <trkpt lat="44.51672" lon="6.63843">
        <ele>2551.96</ele>
        <time>2023-04-18T09:04:51Z</time>
      </trkpt>
      <trkpt lat="44.51672" lon="6.63829">
        <ele>2554.84</ele>
        <time>2023-04-18T09:05:27Z</time>
      </trkpt>
      <trkpt lat="44.51673" lon="6.63814">
        <ele>2558.21</ele>
        <time>2023-04-18T09:06:01Z</time>
      </trkpt>
      <trkpt lat="44.51673" lon="6.63799">
        <ele>2561.09</ele>
        <time>2023-04-18T09:06:40Z</time>
      </trkpt>
      <trkpt lat="44.51676" lon="6.63786">
        <ele>2563.97</ele>
        <time>2023-04-18T09:07:04Z</time>
      </trkpt>
      <trkpt lat="44.51677" lon="6.63769">
        <ele>2567.82</ele>
        <time>2023-04-18T09:07:42Z</time>
      </trkpt>
      <trkpt lat="44.51675" lon="6.63753">
        <ele>2570.22</ele>
        <time>2023-04-18T09:08:20Z</time>
      </trkpt>
      <trkpt lat="44.51676" lon="6.63739">
        <ele>2574.07</ele>
        <time>2023-04-18T09:08:58Z</time>
      </trkpt>
      <trkpt lat="44.51676" lon="6.63724">
        <ele>2577.43</ele>
        <time>2023-04-18T09:09:34Z</time>
      </trkpt>
      <trkpt lat="44.51673" lon="6.6371">
        <ele>2581.28</ele>
        <time>2023-04-18T09:10:11Z</time>
      </trkpt>
      <trkpt lat="44.51663" lon="6.63706">
        <ele>2585.6</ele>
        <time>2023-04-18T09:11:07Z</time>
      </trkpt>
      <trkpt lat="44.51654" lon="6.63706">
        <ele>2588.49</ele>
        <time>2023-04-18T09:11:31Z</time>
      </trkpt>
      <trkpt lat="44.51646" lon="6.63712">
        <ele>2593.29</ele>
        <time>2023-04-18T09:13:07Z</time>
      </trkpt>
      <trkpt lat="44.51638" lon="6.6372">
        <ele>2598.58</ele>
        <time>2023-04-18T09:13:51Z</time>
      </trkpt>
      <trkpt lat="44.51628" lon="6.63715">
        <ele>2601.95</ele>
        <time>2023-04-18T09:14:29Z</time>
      </trkpt>
      <trkpt lat="44.51619" lon="6.63724">
        <ele>2605.31</ele>
        <time>2023-04-18T09:14:57Z</time>
      </trkpt>
      <trkpt lat="44.51615" lon="6.63712">
        <ele>2607.71</ele>
        <time>2023-04-18T09:15:23Z</time>
      </trkpt>
      <trkpt lat="44.51606" lon="6.63703">
        <ele>2611.08</ele>
        <time>2023-04-18T09:15:51Z</time>
      </trkpt>
      <trkpt lat="44.51596" lon="6.63703">
        <ele>2615.4</ele>
        <time>2023-04-18T09:16:27Z</time>
      </trkpt>
      <trkpt lat="44.51591" lon="6.63711">
        <ele>2618.29</ele>
        <time>2023-04-18T09:16:52Z</time>
      </trkpt>
      <trkpt lat="44.51587" lon="6.63724">
        <ele>2621.65</ele>
        <time>2023-04-18T09:17:27Z</time>
      </trkpt>
      <trkpt lat="44.51579" lon="6.63726">
        <ele>2623.58</ele>
        <time>2023-04-18T09:17:55Z</time>
      </trkpt>
      <trkpt lat="44.5157" lon="6.63713">
        <ele>2627.9</ele>
        <time>2023-04-18T09:18:32Z</time>
      </trkpt>
      <trkpt lat="44.51559" lon="6.63722">
        <ele>2632.23</ele>
        <time>2023-04-18T09:19:11Z</time>
      </trkpt>
      <trkpt lat="44.51548" lon="6.63731">
        <ele>2636.07</ele>
        <time>2023-04-18T09:19:49Z</time>
      </trkpt>
      <trkpt lat="44.51539" lon="6.63734">
        <ele>2638.96</ele>
        <time>2023-04-18T09:20:22Z</time>
      </trkpt>
      <trkpt lat="44.51532" lon="6.63743">
        <ele>2642.8</ele>
        <time>2023-04-18T09:20:58Z</time>
      </trkpt>
      <trkpt lat="44.51525" lon="6.63756">
        <ele>2646.65</ele>
        <time>2023-04-18T09:21:35Z</time>
      </trkpt>
      <trkpt lat="44.51518" lon="6.63764">
        <ele>2649.05</ele>
        <time>2023-04-18T09:21:56Z</time>
      </trkpt>
      <trkpt lat="44.51509" lon="6.6377">
        <ele>2651.93</ele>
        <time>2023-04-18T09:22:22Z</time>
      </trkpt>
      <trkpt lat="44.51501" lon="6.63764">
        <ele>2655.78</ele>
        <time>2023-04-18T09:22:59Z</time>
      </trkpt>
      <trkpt lat="44.51504" lon="6.63757">
        <ele>2655.3</ele>
        <time>2023-04-18T09:24:14Z</time>
      </trkpt>
      <trkpt lat="44.51498" lon="6.63745">
        <ele>2660.11</ele>
        <time>2023-04-18T09:25:43Z</time>
      </trkpt>
      <trkpt lat="44.51488" lon="6.63742">
        <ele>2664.43</ele>
        <time>2023-04-18T09:26:29Z</time>
      </trkpt>
      <trkpt lat="44.51476" lon="6.63745">
        <ele>2668.76</ele>
        <time>2023-04-18T09:27:06Z</time>
      </trkpt>
      <trkpt lat="44.51475" lon="6.63741">
        <ele>2671.64</ele>
        <time>2023-04-18T09:27:48Z</time>
      </trkpt>
      <trkpt lat="44.51475" lon="6.63727">
        <ele>2675.97</ele>
        <time>2023-04-18T09:28:30Z</time>
      </trkpt>
      <trkpt lat="44.51466" lon="6.6373">
        <ele>2678.85</ele>
        <time>2023-04-18T09:28:53Z</time>
      </trkpt>
      <trkpt lat="44.51461" lon="6.63731">
        <ele>2681.73</ele>
        <time>2023-04-18T09:29:41Z</time>
      </trkpt>
      <trkpt lat="44.5145" lon="6.63726">
        <ele>2682.22</ele>
        <time>2023-04-18T09:31:02Z</time>
      </trkpt>
      <trkpt lat="44.51436" lon="6.63717">
        <ele>2680.77</ele>
        <time>2023-04-18T09:31:35Z</time>
      </trkpt>
      <trkpt lat="44.51428" lon="6.63708">
        <ele>2682.7</ele>
        <time>2023-04-18T09:32:00Z</time>
      </trkpt>
      <trkpt lat="44.51433" lon="6.63713">
        <ele>2681.73</ele>
        <time>2023-04-18T09:34:21Z</time>
      </trkpt>
      <trkpt lat="44.5144" lon="6.63721">
        <ele>2680.29</ele>
        <time>2023-04-18T09:34:40Z</time>
      </trkpt>
      <trkpt lat="44.51456" lon="6.63732">
        <ele>2682.7</ele>
        <time>2023-04-18T09:35:12Z</time>
      </trkpt>
      <trkpt lat="44.51461" lon="6.63732">
        <ele>2676.45</ele>
        <time>2023-04-18T09:36:07Z</time>
      </trkpt>
      <trkpt lat="44.51462" lon="6.63734">
        <ele>2675.97</ele>
        <time>2023-04-18T09:42:27Z</time>
      </trkpt>
      <trkpt lat="44.51467" lon="6.63736">
        <ele>2677.41</ele>
        <time>2023-04-18T09:45:49Z</time>
      </trkpt>
      <trkpt lat="44.51469" lon="6.63746">
        <ele>2671.64</ele>
        <time>2023-04-18T09:46:54Z</time>
      </trkpt>
      <trkpt lat="44.51481" lon="6.63747">
        <ele>2668.28</ele>
        <time>2023-04-18T09:47:04Z</time>
      </trkpt>
      <trkpt lat="44.51485" lon="6.63767">
        <ele>2660.11</ele>
        <time>2023-04-18T09:47:17Z</time>
      </trkpt>
      <trkpt lat="44.51502" lon="6.63765">
        <ele>2655.3</ele>
        <time>2023-04-18T09:47:40Z</time>
      </trkpt>
      <trkpt lat="44.51525" lon="6.63771">
        <ele>2645.21</ele>
        <time>2023-04-18T09:47:52Z</time>
      </trkpt>
      <trkpt lat="44.51562" lon="6.63746">
        <ele>2627.9</ele>
        <time>2023-04-18T09:48:17Z</time>
      </trkpt>
      <trkpt lat="44.51563" lon="6.63783">
        <ele>2622.61</ele>
        <time>2023-04-18T09:49:27Z</time>
      </trkpt>
      <trkpt lat="44.5156" lon="6.63839">
        <ele>2610.6</ele>
        <time>2023-04-18T09:49:49Z</time>
      </trkpt>
      <trkpt lat="44.51574" lon="6.63858">
        <ele>2598.1</ele>
        <time>2023-04-18T09:50:21Z</time>
      </trkpt>
      <trkpt lat="44.51538" lon="6.63939">
        <ele>2574.07</ele>
        <time>2023-04-18T09:50:55Z</time>
      </trkpt>
      <trkpt lat="44.51552" lon="6.63942">
        <ele>2569.74</ele>
        <time>2023-04-18T09:51:10Z</time>
      </trkpt>
      <trkpt lat="44.51657" lon="6.64084">
        <ele>2496.2</ele>
        <time>2023-04-18T09:52:51Z</time>
      </trkpt>
      <trkpt lat="44.51659" lon="6.64105">
        <ele>2490.43</ele>
        <time>2023-04-18T09:52:59Z</time>
      </trkpt>
      <trkpt lat="44.51679" lon="6.64092">
        <ele>2484.18</ele>
        <time>2023-04-18T09:53:11Z</time>
      </trkpt>
      <trkpt lat="44.51726" lon="6.64035">
        <ele>2476.01</ele>
        <time>2023-04-18T09:54:25Z</time>
      </trkpt>
      <trkpt lat="44.51737" lon="6.64034">
        <ele>2470.24</ele>
        <time>2023-04-18T09:54:58Z</time>
      </trkpt>
      <trkpt lat="44.51753" lon="6.64016">
        <ele>2465.44</ele>
        <time>2023-04-18T09:55:07Z</time>
      </trkpt>
      <trkpt lat="44.51756" lon="6.64034">
        <ele>2460.15</ele>
        <time>2023-04-18T09:55:15Z</time>
      </trkpt>
      <trkpt lat="44.51771" lon="6.64016">
        <ele>2455.34</ele>
        <time>2023-04-18T09:55:30Z</time>
      </trkpt>
      <trkpt lat="44.51791" lon="6.63968">
        <ele>2450.06</ele>
        <time>2023-04-18T09:55:54Z</time>
      </trkpt>
      <trkpt lat="44.51792" lon="6.64091">
        <ele>2431.79</ele>
        <time>2023-04-18T09:56:25Z</time>
      </trkpt>
      <trkpt lat="44.51793" lon="6.64159">
        <ele>2415.93</ele>
        <time>2023-04-18T09:56:45Z</time>
      </trkpt>
      <trkpt lat="44.518" lon="6.64182">
        <ele>2409.68</ele>
        <time>2023-04-18T09:57:12Z</time>
      </trkpt>
      <trkpt lat="44.51833" lon="6.64135">
        <ele>2403.43</ele>
        <time>2023-04-18T09:57:37Z</time>
      </trkpt>
      <trkpt lat="44.51828" lon="6.64268">
        <ele>2379.88</ele>
        <time>2023-04-18T09:58:28Z</time>
      </trkpt>
      <trkpt lat="44.51867" lon="6.64224">
        <ele>2375.55</ele>
        <time>2023-04-18T09:58:54Z</time>
      </trkpt>
      <trkpt lat="44.51898" lon="6.64167">
        <ele>2370.27</ele>
        <time>2023-04-18T09:59:53Z</time>
      </trkpt>
      <trkpt lat="44.51887" lon="6.64208">
        <ele>2364.98</ele>
        <time>2023-04-18T10:00:39Z</time>
      </trkpt>
      <trkpt lat="44.519" lon="6.64327">
        <ele>2333.26</ele>
        <time>2023-04-18T10:01:15Z</time>
      </trkpt>
      <trkpt lat="44.51918" lon="6.64399">
        <ele>2311.63</ele>
        <time>2023-04-18T10:02:35Z</time>
      </trkpt>
      <trkpt lat="44.51932" lon="6.64451">
        <ele>2299.61</ele>
        <time>2023-04-18T10:02:56Z</time>
      </trkpt>
      <trkpt lat="44.51939" lon="6.64443">
        <ele>2296.25</ele>
        <time>2023-04-18T10:03:12Z</time>
      </trkpt>
      <trkpt lat="44.51952" lon="6.64524">
        <ele>2276.06</ele>
        <time>2023-04-18T10:03:48Z</time>
      </trkpt>
      <trkpt lat="44.5197" lon="6.64505">
        <ele>2271.73</ele>
        <time>2023-04-18T10:04:13Z</time>
      </trkpt>
      <trkpt lat="44.51979" lon="6.64495">
        <ele>2267.89</ele>
        <time>2023-04-18T10:04:46Z</time>
      </trkpt>
      <trkpt lat="44.5199" lon="6.64537">
        <ele>2256.35</ele>
        <time>2023-04-18T10:05:17Z</time>
      </trkpt>
      <trkpt lat="44.52004" lon="6.64516">
        <ele>2253.47</ele>
        <time>2023-04-18T10:05:41Z</time>
      </trkpt>
      <trkpt lat="44.52015" lon="6.64521">
        <ele>2248.66</ele>
        <time>2023-04-18T10:06:13Z</time>
      </trkpt>
      <trkpt lat="44.52021" lon="6.6453">
        <ele>2245.3</ele>
        <time>2023-04-18T10:06:21Z</time>
      </trkpt>
      <trkpt lat="44.52029" lon="6.6454">
        <ele>2239.05</ele>
        <time>2023-04-18T10:06:41Z</time>
      </trkpt>
      <trkpt lat="44.52039" lon="6.64544">
        <ele>2238.57</ele>
        <time>2023-04-18T10:07:20Z</time>
      </trkpt>
      <trkpt lat="44.52046" lon="6.64531">
        <ele>2237.13</ele>
        <time>2023-04-18T10:07:55Z</time>
      </trkpt>
      <trkpt lat="44.52054" lon="6.645">
        <ele>2232.32</ele>
        <time>2023-04-18T10:08:07Z</time>
      </trkpt>
      <trkpt lat="44.52062" lon="6.64489">
        <ele>2230.4</ele>
        <time>2023-04-18T10:08:15Z</time>
      </trkpt>
      <trkpt lat="44.5208" lon="6.64463">
        <ele>2226.55</ele>
        <time>2023-04-18T10:08:27Z</time>
      </trkpt>
      <trkpt lat="44.52081" lon="6.64483">
        <ele>2219.82</ele>
        <time>2023-04-18T10:08:43Z</time>
      </trkpt>
      <trkpt lat="44.52093" lon="6.645">
        <ele>2215.5</ele>
        <time>2023-04-18T10:09:04Z</time>
      </trkpt>
      <trkpt lat="44.52099" lon="6.64509">
        <ele>2212.13</ele>
        <time>2023-04-18T10:09:17Z</time>
      </trkpt>
      <trkpt lat="44.52106" lon="6.64527">
        <ele>2203.96</ele>
        <time>2023-04-18T10:09:50Z</time>
      </trkpt>
      <trkpt lat="44.52109" lon="6.64545">
        <ele>2199.63</ele>
        <time>2023-04-18T10:10:01Z</time>
      </trkpt>
      <trkpt lat="44.52116" lon="6.64561">
        <ele>2195.31</ele>
        <time>2023-04-18T10:10:16Z</time>
      </trkpt>
      <trkpt lat="44.5212" lon="6.64577">
        <ele>2191.46</ele>
        <time>2023-04-18T10:10:26Z</time>
      </trkpt>
      <trkpt lat="44.52127" lon="6.64592">
        <ele>2184.73</ele>
        <time>2023-04-18T10:10:50Z</time>
      </trkpt>
      <trkpt lat="44.52148" lon="6.64573">
        <ele>2178</ele>
        <time>2023-04-18T10:11:26Z</time>
      </trkpt>
      <trkpt lat="44.52149" lon="6.6458">
        <ele>2175.6</ele>
        <time>2023-04-18T10:11:46Z</time>
      </trkpt>
      <trkpt lat="44.52149" lon="6.64593">
        <ele>2173.2</ele>
        <time>2023-04-18T10:11:53Z</time>
      </trkpt>
      <trkpt lat="44.52155" lon="6.64609">
        <ele>2169.83</ele>
        <time>2023-04-18T10:12:00Z</time>
      </trkpt>
      <trkpt lat="44.52166" lon="6.64602">
        <ele>2164.06</ele>
        <time>2023-04-18T10:12:39Z</time>
      </trkpt>
      <trkpt lat="44.52172" lon="6.64608">
        <ele>2159.74</ele>
        <time>2023-04-18T10:13:00Z</time>
      </trkpt>
      <trkpt lat="44.52181" lon="6.64612">
        <ele>2154.93</ele>
        <time>2023-04-18T10:13:52Z</time>
      </trkpt>
      <trkpt lat="44.52195" lon="6.64595">
        <ele>2151.57</ele>
        <time>2023-04-18T10:14:09Z</time>
      </trkpt>
      <trkpt lat="44.52197" lon="6.64611">
        <ele>2144.84</ele>
        <time>2023-04-18T10:14:34Z</time>
      </trkpt>
      <trkpt lat="44.52195" lon="6.64633">
        <ele>2140.99</ele>
        <time>2023-04-18T10:14:46Z</time>
      </trkpt>
      <trkpt lat="44.52201" lon="6.64657">
        <ele>2138.59</ele>
        <time>2023-04-18T10:14:58Z</time>
      </trkpt>
      <trkpt lat="44.52216" lon="6.64651">
        <ele>2137.63</ele>
        <time>2023-04-18T10:16:01Z</time>
      </trkpt>
      <trkpt lat="44.52234" lon="6.64637">
        <ele>2133.3</ele>
        <time>2023-04-18T10:16:08Z</time>
      </trkpt>
      <trkpt lat="44.52242" lon="6.64631">
        <ele>2130.42</ele>
        <time>2023-04-18T10:16:11Z</time>
      </trkpt>
      <trkpt lat="44.52256" lon="6.64617">
        <ele>2124.65</ele>
        <time>2023-04-18T10:16:17Z</time>
      </trkpt>
      <trkpt lat="44.52259" lon="6.64599">
        <ele>2123.69</ele>
        <time>2023-04-18T10:16:20Z</time>
      </trkpt>
      <trkpt lat="44.52271" lon="6.64597">
        <ele>2119.84</ele>
        <time>2023-04-18T10:16:24Z</time>
      </trkpt>
      <trkpt lat="44.52273" lon="6.6458">
        <ele>2116.96</ele>
        <time>2023-04-18T10:16:29Z</time>
      </trkpt>
      <trkpt lat="44.52277" lon="6.64547">
        <ele>2110.71</ele>
        <time>2023-04-18T10:16:36Z</time>
      </trkpt>
      <trkpt lat="44.52287" lon="6.64544">
        <ele>2107.83</ele>
        <time>2023-04-18T10:16:39Z</time>
      </trkpt>
      <trkpt lat="44.52297" lon="6.64548">
        <ele>2106.87</ele>
        <time>2023-04-18T10:16:42Z</time>
      </trkpt>
      <trkpt lat="44.52303" lon="6.64534">
        <ele>2105.91</ele>
        <time>2023-04-18T10:16:46Z</time>
      </trkpt>
      <trkpt lat="44.52313" lon="6.64531">
        <ele>2102.06</ele>
        <time>2023-04-18T10:16:49Z</time>
      </trkpt>
      <trkpt lat="44.52327" lon="6.64522">
        <ele>2099.66</ele>
        <time>2023-04-18T10:16:52Z</time>
      </trkpt>
      <trkpt lat="44.52336" lon="6.6452">
        <ele>2099.18</ele>
        <time>2023-04-18T10:16:55Z</time>
      </trkpt>
      <trkpt lat="44.52335" lon="6.64509">
        <ele>2098.21</ele>
        <time>2023-04-18T10:16:59Z</time>
      </trkpt>
      <trkpt lat="44.52326" lon="6.64503">
        <ele>2097.73</ele>
        <time>2023-04-18T10:17:01Z</time>
      </trkpt>
      <trkpt lat="44.5232" lon="6.64493">
        <ele>2096.29</ele>
        <time>2023-04-18T10:17:04Z</time>
      </trkpt>
      <trkpt lat="44.5232" lon="6.64458">
        <ele>2097.25</ele>
        <time>2023-04-18T10:17:17Z</time>
      </trkpt>
      <trkpt lat="44.52324" lon="6.64443">
        <ele>2093.89</ele>
        <time>2023-04-18T10:17:25Z</time>
      </trkpt>
      <trkpt lat="44.52331" lon="6.64435">
        <ele>2093.41</ele>
        <time>2023-04-18T10:18:37Z</time>
      </trkpt>
      <trkpt lat="44.52341" lon="6.64436">
        <ele>2090.52</ele>
        <time>2023-04-18T10:18:50Z</time>
      </trkpt>
      <trkpt lat="44.52351" lon="6.64436">
        <ele>2088.12</ele>
        <time>2023-04-18T10:18:56Z</time>
      </trkpt>
      <trkpt lat="44.5236" lon="6.64432">
        <ele>2085.24</ele>
        <time>2023-04-18T10:18:59Z</time>
      </trkpt>
      <trkpt lat="44.52362" lon="6.64441">
        <ele>2082.35</ele>
        <time>2023-04-18T10:19:05Z</time>
      </trkpt>
      <trkpt lat="44.5237" lon="6.64456">
        <ele>2077.55</ele>
        <time>2023-04-18T10:19:16Z</time>
      </trkpt>
      <trkpt lat="44.5238" lon="6.64443">
        <ele>2075.14</ele>
        <time>2023-04-18T10:19:21Z</time>
      </trkpt>
      <trkpt lat="44.52391" lon="6.64439">
        <ele>2071.78</ele>
        <time>2023-04-18T10:19:27Z</time>
      </trkpt>
      <trkpt lat="44.52404" lon="6.64434">
        <ele>2067.93</ele>
        <time>2023-04-18T10:19:31Z</time>
      </trkpt>
      <trkpt lat="44.52418" lon="6.64426">
        <ele>2064.09</ele>
        <time>2023-04-18T10:19:35Z</time>
      </trkpt>
      <trkpt lat="44.52428" lon="6.64409">
        <ele>2059.76</ele>
        <time>2023-04-18T10:19:40Z</time>
      </trkpt>
      <trkpt lat="44.52436" lon="6.64399">
        <ele>2057.84</ele>
        <time>2023-04-18T10:19:43Z</time>
      </trkpt>
      <trkpt lat="44.52431" lon="6.64414">
        <ele>2056.4</ele>
        <time>2023-04-18T10:19:49Z</time>
      </trkpt>
      <trkpt lat="44.52438" lon="6.64414">
        <ele>2055.92</ele>
        <time>2023-04-18T10:20:24Z</time>
      </trkpt>
      <trkpt lat="44.52447" lon="6.64405">
        <ele>2055.44</ele>
        <time>2023-04-18T10:20:27Z</time>
      </trkpt>
      <trkpt lat="44.52465" lon="6.64391">
        <ele>2053.03</ele>
        <time>2023-04-18T10:20:31Z</time>
      </trkpt>
      <trkpt lat="44.52476" lon="6.64385">
        <ele>2051.11</ele>
        <time>2023-04-18T10:20:34Z</time>
      </trkpt>
      <trkpt lat="44.52497" lon="6.64368">
        <ele>2048.71</ele>
        <time>2023-04-18T10:20:39Z</time>
      </trkpt>
      <trkpt lat="44.52503" lon="6.64358">
        <ele>2048.23</ele>
        <time>2023-04-18T10:20:41Z</time>
      </trkpt>
      <trkpt lat="44.52525" lon="6.64331">
        <ele>2044.38</ele>
        <time>2023-04-18T10:20:47Z</time>
      </trkpt>
      <trkpt lat="44.52548" lon="6.64306">
        <ele>2041.02</ele>
        <time>2023-04-18T10:20:53Z</time>
      </trkpt>
      <trkpt lat="44.52571" lon="6.64271">
        <ele>2038.13</ele>
        <time>2023-04-18T10:21:04Z</time>
      </trkpt>
      <trkpt lat="44.52581" lon="6.64268">
        <ele>2037.65</ele>
        <time>2023-04-18T10:21:08Z</time>
      </trkpt>
      <trkpt lat="44.52613" lon="6.64268">
        <ele>2034.29</ele>
        <time>2023-04-18T10:21:17Z</time>
      </trkpt>
      <trkpt lat="44.5265" lon="6.64254">
        <ele>2030.44</ele>
        <time>2023-04-18T10:21:28Z</time>
      </trkpt>
      <trkpt lat="44.52674" lon="6.64239">
        <ele>2027.08</ele>
        <time>2023-04-18T10:21:35Z</time>
      </trkpt>
      <trkpt lat="44.52698" lon="6.64216">
        <ele>2024.19</ele>
        <time>2023-04-18T10:21:43Z</time>
      </trkpt>
      <trkpt lat="44.52733" lon="6.64197">
        <ele>2020.35</ele>
        <time>2023-04-18T10:21:52Z</time>
      </trkpt>
      <trkpt lat="44.52758" lon="6.64187">
        <ele>2017.46</ele>
        <time>2023-04-18T10:22:00Z</time>
      </trkpt>
      <trkpt lat="44.52778" lon="6.64185">
        <ele>2015.06</ele>
        <time>2023-04-18T10:22:11Z</time>
      </trkpt>
      <trkpt lat="44.52788" lon="6.64183">
        <ele>2013.62</ele>
        <time>2023-04-18T10:22:51Z</time>
      </trkpt>
      <trkpt lat="44.52815" lon="6.64186">
        <ele>2012.18</ele>
        <time>2023-04-18T10:23:19Z</time>
      </trkpt>
      <trkpt lat="44.52845" lon="6.64185">
        <ele>2008.81</ele>
        <time>2023-04-18T10:23:29Z</time>
      </trkpt>
      <trkpt lat="44.52876" lon="6.64188">
        <ele>2004.49</ele>
        <time>2023-04-18T10:23:40Z</time>
      </trkpt>
      <trkpt lat="44.52884" lon="6.64188">
        <ele>2003.04</ele>
        <time>2023-04-18T10:24:17Z</time>
      </trkpt>
      <trkpt lat="44.52883" lon="6.64191">
        <ele>2003.04</ele>
        <time>2023-04-18T10:26:51Z</time>
      </trkpt>
      <trkpt lat="44.52902" lon="6.64197">
        <ele>2000.64</ele>
        <time>2023-04-18T10:27:22Z</time>
      </trkpt>
      <trkpt lat="44.52914" lon="6.642">
        <ele>2000.16</ele>
        <time>2023-04-18T10:27:36Z</time>
      </trkpt>
      <trkpt lat="44.52927" lon="6.64203">
        <ele>1998.72</ele>
        <time>2023-04-18T10:27:50Z</time>
      </trkpt>
      <trkpt lat="44.52943" lon="6.64204">
        <ele>1996.8</ele>
        <time>2023-04-18T10:28:07Z</time>
      </trkpt>
      <trkpt lat="44.52956" lon="6.64205">
        <ele>1995.83</ele>
        <time>2023-04-18T10:28:21Z</time>
      </trkpt>
      <trkpt lat="44.52969" lon="6.64205">
        <ele>1993.91</ele>
        <time>2023-04-18T10:28:35Z</time>
      </trkpt>
      <trkpt lat="44.52981" lon="6.64203">
        <ele>1992.47</ele>
        <time>2023-04-18T10:28:48Z</time>
      </trkpt>
      <trkpt lat="44.52992" lon="6.64206">
        <ele>1991.51</ele>
        <time>2023-04-18T10:29:01Z</time>
      </trkpt>
      <trkpt lat="44.5301" lon="6.6421">
        <ele>1990.07</ele>
        <time>2023-04-18T10:29:20Z</time>
      </trkpt>
      <trkpt lat="44.53029" lon="6.64215">
        <ele>1988.62</ele>
        <time>2023-04-18T10:29:41Z</time>
      </trkpt>
      <trkpt lat="44.53048" lon="6.64207">
        <ele>1986.22</ele>
        <time>2023-04-18T10:30:07Z</time>
      </trkpt>
      <trkpt lat="44.53058" lon="6.64204">
        <ele>1984.78</ele>
        <time>2023-04-18T10:30:19Z</time>
      </trkpt>
      <trkpt lat="44.53074" lon="6.64197">
        <ele>1983.82</ele>
        <time>2023-04-18T10:30:46Z</time>
      </trkpt>
      <trkpt lat="44.53096" lon="6.64192">
        <ele>1981.9</ele>
        <time>2023-04-18T10:31:08Z</time>
      </trkpt>
      <trkpt lat="44.53111" lon="6.64186">
        <ele>1980.45</ele>
        <time>2023-04-18T10:31:23Z</time>
      </trkpt>
      <trkpt lat="44.53125" lon="6.64184">
        <ele>1978.53</ele>
        <time>2023-04-18T10:31:37Z</time>
      </trkpt>
      <trkpt lat="44.5314" lon="6.64182">
        <ele>1977.09</ele>
        <time>2023-04-18T10:31:51Z</time>
      </trkpt>
      <trkpt lat="44.53151" lon="6.6418">
        <ele>1975.65</ele>
        <time>2023-04-18T10:32:04Z</time>
      </trkpt>
      <trkpt lat="44.53167" lon="6.64183">
        <ele>1974.69</ele>
        <time>2023-04-18T10:32:19Z</time>
      </trkpt>
      <trkpt lat="44.53181" lon="6.64182">
        <ele>1973.24</ele>
        <time>2023-04-18T10:32:35Z</time>
      </trkpt>
      <trkpt lat="44.53201" lon="6.64174">
        <ele>1971.32</ele>
        <time>2023-04-18T10:32:56Z</time>
      </trkpt>
      <trkpt lat="44.5321" lon="6.64168">
        <ele>1969.88</ele>
        <time>2023-04-18T10:33:09Z</time>
      </trkpt>
      <trkpt lat="44.53219" lon="6.64159">
        <ele>1968.44</ele>
        <time>2023-04-18T10:33:23Z</time>
      </trkpt>
      <trkpt lat="44.53232" lon="6.64151">
        <ele>1967.96</ele>
        <time>2023-04-18T10:33:38Z</time>
      </trkpt>
      <trkpt lat="44.53245" lon="6.64148">
        <ele>1965.55</ele>
        <time>2023-04-18T10:33:52Z</time>
      </trkpt>
      <trkpt lat="44.53258" lon="6.64147">
        <ele>1964.59</ele>
        <time>2023-04-18T10:34:07Z</time>
      </trkpt>
      <trkpt lat="44.5327" lon="6.64152">
        <ele>1963.15</ele>
        <time>2023-04-18T10:34:20Z</time>
      </trkpt>
      <trkpt lat="44.53287" lon="6.64158">
        <ele>1961.71</ele>
        <time>2023-04-18T10:34:37Z</time>
      </trkpt>
      <trkpt lat="44.53302" lon="6.64163">
        <ele>1960.27</ele>
        <time>2023-04-18T10:34:52Z</time>
      </trkpt>
      <trkpt lat="44.53325" lon="6.64165">
        <ele>1957.38</ele>
        <time>2023-04-18T10:35:15Z</time>
      </trkpt>
      <trkpt lat="44.53344" lon="6.6417">
        <ele>1955.46</ele>
        <time>2023-04-18T10:35:32Z</time>
      </trkpt>
      <trkpt lat="44.53359" lon="6.64175">
        <ele>1954.02</ele>
        <time>2023-04-18T10:35:48Z</time>
      </trkpt>
      <trkpt lat="44.53379" lon="6.64175">
        <ele>1951.61</ele>
        <time>2023-04-18T10:36:07Z</time>
      </trkpt>
      <trkpt lat="44.53388" lon="6.64176">
        <ele>1950.17</ele>
        <time>2023-04-18T10:36:16Z</time>
      </trkpt>
      <trkpt lat="44.534" lon="6.64174">
        <ele>1949.21</ele>
        <time>2023-04-18T10:36:29Z</time>
      </trkpt>
      <trkpt lat="44.53417" lon="6.64171">
        <ele>1947.77</ele>
        <time>2023-04-18T10:36:45Z</time>
      </trkpt>
      <trkpt lat="44.53434" lon="6.64164">
        <ele>1946.81</ele>
        <time>2023-04-18T10:37:03Z</time>
      </trkpt>
      <trkpt lat="44.53448" lon="6.64154">
        <ele>1946.81</ele>
        <time>2023-04-18T10:37:19Z</time>
      </trkpt>
      <trkpt lat="44.53463" lon="6.64151">
        <ele>1946.81</ele>
        <time>2023-04-18T10:37:36Z</time>
      </trkpt>
      <trkpt lat="44.53479" lon="6.64152">
        <ele>1946.33</ele>
        <time>2023-04-18T10:37:51Z</time>
      </trkpt>
      <trkpt lat="44.53496" lon="6.64153">
        <ele>1946.33</ele>
        <time>2023-04-18T10:38:05Z</time>
      </trkpt>
      <trkpt lat="44.53508" lon="6.64154">
        <ele>1945.85</ele>
        <time>2023-04-18T10:38:18Z</time>
      </trkpt>
      <trkpt lat="44.53521" lon="6.64156">
        <ele>1945.36</ele>
        <time>2023-04-18T10:38:32Z</time>
      </trkpt>
      <trkpt lat="44.53531" lon="6.64161">
        <ele>1944.88</ele>
        <time>2023-04-18T10:38:43Z</time>
      </trkpt>
      <trkpt lat="44.53541" lon="6.64168">
        <ele>1945.36</ele>
        <time>2023-04-18T10:38:56Z</time>
      </trkpt>
      <trkpt lat="44.53556" lon="6.64178">
        <ele>1944.88</ele>
        <time>2023-04-18T10:39:10Z</time>
      </trkpt>
      <trkpt lat="44.53566" lon="6.64176">
        <ele>1943.92</ele>
        <time>2023-04-18T10:39:22Z</time>
      </trkpt>
      <trkpt lat="44.5358" lon="6.64169">
        <ele>1942</ele>
        <time>2023-04-18T10:39:38Z</time>
      </trkpt>
      <trkpt lat="44.53594" lon="6.64158">
        <ele>1940.08</ele>
        <time>2023-04-18T10:39:55Z</time>
      </trkpt>
      <trkpt lat="44.53606" lon="6.64149">
        <ele>1939.6</ele>
        <time>2023-04-18T10:40:10Z</time>
      </trkpt>
      <trkpt lat="44.5362" lon="6.64142">
        <ele>1938.16</ele>
        <time>2023-04-18T10:40:25Z</time>
      </trkpt>
      <trkpt lat="44.53635" lon="6.64138">
        <ele>1936.71</ele>
        <time>2023-04-18T10:40:37Z</time>
      </trkpt>
      <trkpt lat="44.53645" lon="6.64132">
        <ele>1935.27</ele>
        <time>2023-04-18T10:40:52Z</time>
      </trkpt>
      <trkpt lat="44.53653" lon="6.64125">
        <ele>1933.83</ele>
        <time>2023-04-18T10:41:02Z</time>
      </trkpt>
      <trkpt lat="44.53663" lon="6.6412">
        <ele>1932.39</ele>
        <time>2023-04-18T10:41:16Z</time>
      </trkpt>
      <trkpt lat="44.53678" lon="6.64107">
        <ele>1930.46</ele>
        <time>2023-04-18T10:41:33Z</time>
      </trkpt>
      <trkpt lat="44.53695" lon="6.64099">
        <ele>1928.54</ele>
        <time>2023-04-18T10:41:50Z</time>
      </trkpt>
      <trkpt lat="44.53706" lon="6.64094">
        <ele>1926.62</ele>
        <time>2023-04-18T10:42:03Z</time>
      </trkpt>
      <trkpt lat="44.53717" lon="6.64089">
        <ele>1925.66</ele>
        <time>2023-04-18T10:42:13Z</time>
      </trkpt>
      <trkpt lat="44.53734" lon="6.64082">
        <ele>1923.74</ele>
        <time>2023-04-18T10:42:33Z</time>
      </trkpt>
      <trkpt lat="44.53753" lon="6.6407">
        <ele>1921.33</ele>
        <time>2023-04-18T10:42:54Z</time>
      </trkpt>
      <trkpt lat="44.53767" lon="6.6406">
        <ele>1918.93</ele>
        <time>2023-04-18T10:43:11Z</time>
      </trkpt>
      <trkpt lat="44.5378" lon="6.64049">
        <ele>1917.49</ele>
        <time>2023-04-18T10:43:27Z</time>
      </trkpt>
      <trkpt lat="44.53787" lon="6.64043">
        <ele>1916.04</ele>
        <time>2023-04-18T10:44:45Z</time>
      </trkpt>
      <trkpt lat="44.53787" lon="6.64042">
        <ele>1917.49</ele>
        <time>2023-04-18T10:45:36Z</time>
      </trkpt>
      <trkpt lat="44.53787" lon="6.64041">
        <ele>1918.93</ele>
        <time>2023-04-18T10:46:24Z</time>
      </trkpt>
      <trkpt lat="44.53795" lon="6.64032">
        <ele>1917.49</ele>
        <time>2023-04-18T10:46:27Z</time>
      </trkpt>
      <trkpt lat="44.53812" lon="6.64">
        <ele>1913.64</ele>
        <time>2023-04-18T10:46:35Z</time>
      </trkpt>
      <trkpt lat="44.53822" lon="6.63969">
        <ele>1910.76</ele>
        <time>2023-04-18T10:46:42Z</time>
      </trkpt>
      <trkpt lat="44.53832" lon="6.63969">
        <ele>1909.8</ele>
        <time>2023-04-18T10:46:45Z</time>
      </trkpt>
      <trkpt lat="44.53835" lon="6.63982">
        <ele>1908.83</ele>
        <time>2023-04-18T10:46:48Z</time>
      </trkpt>
      <trkpt lat="44.53836" lon="6.63995">
        <ele>1907.87</ele>
        <time>2023-04-18T10:46:52Z</time>
      </trkpt>
      <trkpt lat="44.53831" lon="6.64034">
        <ele>1905.47</ele>
        <time>2023-04-18T10:47:07Z</time>
      </trkpt>
      <trkpt lat="44.53831" lon="6.64048">
        <ele>1901.63</ele>
        <time>2023-04-18T10:47:54Z</time>
      </trkpt>
      <trkpt lat="44.53839" lon="6.64028">
        <ele>1900.18</ele>
        <time>2023-04-18T10:48:08Z</time>
      </trkpt>
      <trkpt lat="44.53849" lon="6.64003">
        <ele>1899.7</ele>
        <time>2023-04-18T10:48:22Z</time>
      </trkpt>
      <trkpt lat="44.53851" lon="6.63973">
        <ele>1897.78</ele>
        <time>2023-04-18T10:48:32Z</time>
      </trkpt>
      <trkpt lat="44.53844" lon="6.63939">
        <ele>1895.86</ele>
        <time>2023-04-18T10:48:44Z</time>
      </trkpt>
      <trkpt lat="44.53823" lon="6.63897">
        <ele>1892.01</ele>
        <time>2023-04-18T10:48:57Z</time>
      </trkpt>
      <trkpt lat="44.53814" lon="6.63884">
        <ele>1891.05</ele>
        <time>2023-04-18T10:49:00Z</time>
      </trkpt>
      <trkpt lat="44.53807" lon="6.63871">
        <ele>1890.57</ele>
        <time>2023-04-18T10:49:03Z</time>
      </trkpt>
      <trkpt lat="44.53804" lon="6.63853">
        <ele>1888.65</ele>
        <time>2023-04-18T10:49:06Z</time>
      </trkpt>
      <trkpt lat="44.53808" lon="6.63841">
        <ele>1887.69</ele>
        <time>2023-04-18T10:49:08Z</time>
      </trkpt>
      <trkpt lat="44.5382" lon="6.63813">
        <ele>1884.8</ele>
        <time>2023-04-18T10:49:14Z</time>
      </trkpt>
      <trkpt lat="44.53817" lon="6.63795">
        <ele>1883.36</ele>
        <time>2023-04-18T10:49:17Z</time>
      </trkpt>
      <trkpt lat="44.53814" lon="6.63782">
        <ele>1882.4</ele>
        <time>2023-04-18T10:49:19Z</time>
      </trkpt>
      <trkpt lat="44.53812" lon="6.63768">
        <ele>1880.96</ele>
        <time>2023-04-18T10:49:22Z</time>
      </trkpt>
      <trkpt lat="44.5381" lon="6.63744">
        <ele>1879.51</ele>
        <time>2023-04-18T10:49:32Z</time>
      </trkpt>
      <trkpt lat="44.53816" lon="6.63733">
        <ele>1879.51</ele>
        <time>2023-04-18T10:49:48Z</time>
      </trkpt>
      <trkpt lat="44.53826" lon="6.63712">
        <ele>1879.03</ele>
        <time>2023-04-18T10:50:22Z</time>
      </trkpt>
      <trkpt lat="44.53834" lon="6.63701">
        <ele>1879.03</ele>
        <time>2023-04-18T10:50:30Z</time>
      </trkpt>
      <trkpt lat="44.53844" lon="6.63695">
        <ele>1878.55</ele>
        <time>2023-04-18T10:50:34Z</time>
      </trkpt>
      <trkpt lat="44.53856" lon="6.63688">
        <ele>1877.11</ele>
        <time>2023-04-18T10:50:46Z</time>
      </trkpt>
      <trkpt lat="44.53868" lon="6.63677">
        <ele>1876.63</ele>
        <time>2023-04-18T10:50:58Z</time>
      </trkpt>
      <trkpt lat="44.53891" lon="6.63646">
        <ele>1874.71</ele>
        <time>2023-04-18T10:51:10Z</time>
      </trkpt>
      <trkpt lat="44.5391" lon="6.63596">
        <ele>1873.27</ele>
        <time>2023-04-18T10:51:23Z</time>
      </trkpt>
      <trkpt lat="44.53914" lon="6.63532">
        <ele>1869.42</ele>
        <time>2023-04-18T10:51:36Z</time>
      </trkpt>
      <trkpt lat="44.53918" lon="6.63518">
        <ele>1868.94</ele>
        <time>2023-04-18T10:51:39Z</time>
      </trkpt>
      <trkpt lat="44.53936" lon="6.63484">
        <ele>1866.06</ele>
        <time>2023-04-18T10:51:46Z</time>
      </trkpt>
      <trkpt lat="44.53948" lon="6.63464">
        <ele>1864.61</ele>
        <time>2023-04-18T10:51:50Z</time>
      </trkpt>
      <trkpt lat="44.53956" lon="6.63457">
        <ele>1863.17</ele>
        <time>2023-04-18T10:51:52Z</time>
      </trkpt>
      <trkpt lat="44.53967" lon="6.63449">
        <ele>1861.25</ele>
        <time>2023-04-18T10:51:55Z</time>
      </trkpt>
      <trkpt lat="44.53979" lon="6.63441">
        <ele>1860.29</ele>
        <time>2023-04-18T10:51:58Z</time>
      </trkpt>
      <trkpt lat="44.54004" lon="6.63411">
        <ele>1856.92</ele>
        <time>2023-04-18T10:52:07Z</time>
      </trkpt>
      <trkpt lat="44.54015" lon="6.63391">
        <ele>1855</ele>
        <time>2023-04-18T10:52:12Z</time>
      </trkpt>
      <trkpt lat="44.54027" lon="6.63365">
        <ele>1852.6</ele>
        <time>2023-04-18T10:52:19Z</time>
      </trkpt>
      <trkpt lat="44.54033" lon="6.63346">
        <ele>1850.68</ele>
        <time>2023-04-18T10:52:24Z</time>
      </trkpt>
      <trkpt lat="44.54044" lon="6.63324">
        <ele>1848.27</ele>
        <time>2023-04-18T10:52:31Z</time>
      </trkpt>
      <trkpt lat="44.54049" lon="6.63307">
        <ele>1846.83</ele>
        <time>2023-04-18T10:52:36Z</time>
      </trkpt>
      <trkpt lat="44.54052" lon="6.63289">
        <ele>1844.91</ele>
        <time>2023-04-18T10:52:46Z</time>
      </trkpt>
      <trkpt lat="44.54056" lon="6.63249">
        <ele>1842.02</ele>
        <time>2023-04-18T10:52:58Z</time>
      </trkpt>
      <trkpt lat="44.54062" lon="6.632">
        <ele>1838.18</ele>
        <time>2023-04-18T10:53:09Z</time>
      </trkpt>
      <trkpt lat="44.54064" lon="6.63187">
        <ele>1837.22</ele>
        <time>2023-04-18T10:53:11Z</time>
      </trkpt>
      <trkpt lat="44.54076" lon="6.63151">
        <ele>1834.33</ele>
        <time>2023-04-18T10:53:19Z</time>
      </trkpt>
      <trkpt lat="44.54083" lon="6.63134">
        <ele>1833.37</ele>
        <time>2023-04-18T10:53:23Z</time>
      </trkpt>
      <trkpt lat="44.54093" lon="6.63132">
        <ele>1831.45</ele>
        <time>2023-04-18T10:53:38Z</time>
      </trkpt>
      <trkpt lat="44.54094" lon="6.63146">
        <ele>1829.05</ele>
        <time>2023-04-18T10:53:49Z</time>
      </trkpt>
      <trkpt lat="44.54094" lon="6.63186">
        <ele>1827.12</ele>
        <time>2023-04-18T10:54:03Z</time>
      </trkpt>
      <trkpt lat="44.54099" lon="6.6322">
        <ele>1824.72</ele>
        <time>2023-04-18T10:54:15Z</time>
      </trkpt>
      <trkpt lat="44.54101" lon="6.6323">
        <ele>1823.76</ele>
        <time>2023-04-18T10:54:55Z</time>
      </trkpt>
      <trkpt lat="44.54106" lon="6.63234">
        <ele>1823.28</ele>
        <time>2023-04-18T10:55:53Z</time>
      </trkpt>
      <trkpt lat="44.54108" lon="6.63236">
        <ele>1823.28</ele>
        <time>2023-04-18T10:56:44Z</time>
      </trkpt>
      <trkpt lat="44.54113" lon="6.6325">
        <ele>1823.28</ele>
        <time>2023-04-18T10:56:57Z</time>
      </trkpt>
      <trkpt lat="44.54118" lon="6.63273">
        <ele>1821.35</ele>
        <time>2023-04-18T10:57:12Z</time>
      </trkpt>
      <trkpt lat="44.5412" lon="6.63292">
        <ele>1819.91</ele>
        <time>2023-04-18T10:57:27Z</time>
      </trkpt>
      <trkpt lat="44.54118" lon="6.63322">
        <ele>1818.95</ele>
        <time>2023-04-18T10:57:48Z</time>
      </trkpt>
      <trkpt lat="44.5413" lon="6.63333">
        <ele>1814.63</ele>
        <time>2023-04-18T10:58:13Z</time>
      </trkpt>
      <trkpt lat="44.54143" lon="6.63311">
        <ele>1811.74</ele>
        <time>2023-04-18T10:58:45Z</time>
      </trkpt>
      <trkpt lat="44.5415" lon="6.63292">
        <ele>1809.82</ele>
        <time>2023-04-18T10:59:01Z</time>
      </trkpt>
      <trkpt lat="44.54155" lon="6.63278">
        <ele>1808.86</ele>
        <time>2023-04-18T10:59:13Z</time>
      </trkpt>
      <trkpt lat="44.54164" lon="6.63256">
        <ele>1806.94</ele>
        <time>2023-04-18T10:59:29Z</time>
      </trkpt>
      <trkpt lat="44.54179" lon="6.63231">
        <ele>1805.01</ele>
        <time>2023-04-18T10:59:51Z</time>
      </trkpt>
      <trkpt lat="44.5419" lon="6.63216">
        <ele>1802.61</ele>
        <time>2023-04-18T11:00:06Z</time>
      </trkpt>
      <trkpt lat="44.54212" lon="6.63195">
        <ele>1800.21</ele>
        <time>2023-04-18T11:00:28Z</time>
      </trkpt>
      <trkpt lat="44.54219" lon="6.63186">
        <ele>1799.73</ele>
        <time>2023-04-18T11:00:38Z</time>
      </trkpt>
      <trkpt lat="44.54224" lon="6.6317">
        <ele>1798.28</ele>
        <time>2023-04-18T11:00:50Z</time>
      </trkpt>
      <trkpt lat="44.54228" lon="6.63146">
        <ele>1796.84</ele>
        <time>2023-04-18T11:01:07Z</time>
      </trkpt>
      <trkpt lat="44.54229" lon="6.63123">
        <ele>1793.96</ele>
        <time>2023-04-18T11:01:25Z</time>
      </trkpt>
      <trkpt lat="44.54233" lon="6.63106">
        <ele>1793.48</ele>
        <time>2023-04-18T11:01:40Z</time>
      </trkpt>
      <trkpt lat="44.54243" lon="6.63111">
        <ele>1789.15</ele>
        <time>2023-04-18T11:02:05Z</time>
      </trkpt>
      <trkpt lat="44.54256" lon="6.63117">
        <ele>1783.38</ele>
        <time>2023-04-18T11:02:33Z</time>
      </trkpt>
      <trkpt lat="44.54268" lon="6.63116">
        <ele>1778.1</ele>
        <time>2023-04-18T11:02:58Z</time>
      </trkpt>
      <trkpt lat="44.54281" lon="6.63116">
        <ele>1774.25</ele>
        <time>2023-04-18T11:03:16Z</time>
      </trkpt>
      <trkpt lat="44.54295" lon="6.6311">
        <ele>1769.92</ele>
        <time>2023-04-18T11:03:43Z</time>
      </trkpt>
      <trkpt lat="44.54309" lon="6.63102">
        <ele>1764.64</ele>
        <time>2023-04-18T11:04:08Z</time>
      </trkpt>
      <trkpt lat="44.54321" lon="6.63109">
        <ele>1758.39</ele>
        <time>2023-04-18T11:04:44Z</time>
      </trkpt>
      <trkpt lat="44.54336" lon="6.63106">
        <ele>1750.7</ele>
        <time>2023-04-18T11:05:24Z</time>
      </trkpt>
      <trkpt lat="44.54348" lon="6.63113">
        <ele>1746.85</ele>
        <time>2023-04-18T11:05:49Z</time>
      </trkpt>
      <trkpt lat="44.54353" lon="6.63128">
        <ele>1743.49</ele>
        <time>2023-04-18T11:06:11Z</time>
      </trkpt>
      <trkpt lat="44.54367" lon="6.63149">
        <ele>1740.12</ele>
        <time>2023-04-18T11:07:03Z</time>
      </trkpt>
      <trkpt lat="44.54372" lon="6.63162">
        <ele>1739.64</ele>
        <time>2023-04-18T11:07:17Z</time>
      </trkpt>
      <trkpt lat="44.54377" lon="6.63176">
        <ele>1735.8</ele>
        <time>2023-04-18T11:07:42Z</time>
      </trkpt>
      <trkpt lat="44.54384" lon="6.63185">
        <ele>1731.47</ele>
        <time>2023-04-18T11:08:07Z</time>
      </trkpt>
      <trkpt lat="44.54392" lon="6.63197">
        <ele>1729.55</ele>
        <time>2023-04-18T11:08:21Z</time>
      </trkpt>
      <trkpt lat="44.54391" lon="6.63218">
        <ele>1728.11</ele>
        <time>2023-04-18T11:08:36Z</time>
      </trkpt>
      <trkpt lat="44.54394" lon="6.63243">
        <ele>1725.7</ele>
        <time>2023-04-18T11:08:58Z</time>
      </trkpt>
      <trkpt lat="44.54402" lon="6.63253">
        <ele>1719.94</ele>
        <time>2023-04-18T11:09:27Z</time>
      </trkpt>
      <trkpt lat="44.54408" lon="6.63264">
        <ele>1713.69</ele>
        <time>2023-04-18T11:10:06Z</time>
      </trkpt>
      <trkpt lat="44.54421" lon="6.63262">
        <ele>1708.88</ele>
        <time>2023-04-18T11:10:34Z</time>
      </trkpt>
      <trkpt lat="44.54426" lon="6.63251">
        <ele>1706</ele>
        <time>2023-04-18T11:10:49Z</time>
      </trkpt>
      <trkpt lat="44.54436" lon="6.6324">
        <ele>1703.11</ele>
        <time>2023-04-18T11:11:05Z</time>
      </trkpt>
      <trkpt lat="44.54443" lon="6.6323">
        <ele>1701.19</ele>
        <time>2023-04-18T11:11:19Z</time>
      </trkpt>
      <trkpt lat="44.5445" lon="6.6322">
        <ele>1697.83</ele>
        <time>2023-04-18T11:11:33Z</time>
      </trkpt>
      <trkpt lat="44.54456" lon="6.6321">
        <ele>1695.42</ele>
        <time>2023-04-18T11:11:47Z</time>
      </trkpt>
      <trkpt lat="44.5446" lon="6.63196">
        <ele>1692.54</ele>
        <time>2023-04-18T11:12:01Z</time>
      </trkpt>
      <trkpt lat="44.54464" lon="6.6318">
        <ele>1690.14</ele>
        <time>2023-04-18T11:12:16Z</time>
      </trkpt>
      <trkpt lat="44.54473" lon="6.63169">
        <ele>1689.17</ele>
        <time>2023-04-18T11:12:29Z</time>
      </trkpt>
      <trkpt lat="44.54479" lon="6.63177">
        <ele>1688.21</ele>
        <time>2023-04-18T11:12:47Z</time>
      </trkpt>
      <trkpt lat="44.54476" lon="6.63196">
        <ele>1687.73</ele>
        <time>2023-04-18T11:13:02Z</time>
      </trkpt>
      <trkpt lat="44.54474" lon="6.63214">
        <ele>1686.29</ele>
        <time>2023-04-18T11:13:16Z</time>
      </trkpt>
      <trkpt lat="44.54474" lon="6.63235">
        <ele>1685.81</ele>
        <time>2023-04-18T11:13:32Z</time>
      </trkpt>
      <trkpt lat="44.54477" lon="6.6325">
        <ele>1684.85</ele>
        <time>2023-04-18T11:13:46Z</time>
      </trkpt>
      <trkpt lat="44.54482" lon="6.63265">
        <ele>1684.85</ele>
        <time>2023-04-18T11:14:02Z</time>
      </trkpt>
      <trkpt lat="44.54488" lon="6.6328">
        <ele>1684.85</ele>
        <time>2023-04-18T11:14:29Z</time>
      </trkpt>
      <trkpt lat="44.54491" lon="6.63281">
        <ele>1682.93</ele>
        <time>2023-04-18T11:17:03Z</time>
      </trkpt>
      <trkpt lat="44.54494" lon="6.63282">
        <ele>1682.93</ele>
        <time>2023-04-18T11:18:03Z</time>
      </trkpt>
    </trkseg>
  </trk>
</gpx>